<?xml version="1.0" encoding="UTF-8" standalone="no" ?>
<gpx xmlns="http://www.topografix.com/GPX/1/1" xmlns:xsi="http://www.w3.org/2001/XMLSchema-instance" xsi:schemaLocation="http://www.topografix.com/GPX/1/1 http://www.topografix.com/GPX/1/1/gpx.xsd" version="1.1" creator="VisuGPX - https://www.visugpx.com">
  <metadata>
    <name>Cabanon des Marquis</name>
    <desc><![CDATA[Rando facile,beau point de vue sur le golfe de La Ciotat.]]></desc>
  </metadata>
  <trk>
    <name><![CDATA[Cabanon des Marquis_5]]></name>
    <trkseg>
      <trkpt lat="43.24203" lon="5.63643">
        <ele>519.9</ele>
        <time>2014-10-08T12:08:32Z</time>
      </trkpt>
      <trkpt lat="43.24202" lon="5.63644">
        <ele>519.7</ele>
        <time>2014-10-08T12:08:33Z</time>
      </trkpt>
      <trkpt lat="43.24197" lon="5.63648">
        <ele>517</ele>
        <time>2014-10-08T12:08:38Z</time>
      </trkpt>
      <trkpt lat="43.24193" lon="5.63651">
        <ele>516</ele>
        <time>2014-10-08T12:08:41Z</time>
      </trkpt>
      <trkpt lat="43.24189" lon="5.63653">
        <ele>517.5</ele>
        <time>2014-10-08T12:08:45Z</time>
      </trkpt>
      <trkpt lat="43.24185" lon="5.63656">
        <ele>517.4</ele>
        <time>2014-10-08T12:08:49Z</time>
      </trkpt>
      <trkpt lat="43.24181" lon="5.63658">
        <ele>518.7</ele>
        <time>2014-10-08T12:08:53Z</time>
      </trkpt>
      <trkpt lat="43.24179" lon="5.63662">
        <ele>518</ele>
        <time>2014-10-08T12:08:56Z</time>
      </trkpt>
      <trkpt lat="43.24176" lon="5.63666">
        <ele>517.9</ele>
        <time>2014-10-08T12:08:59Z</time>
      </trkpt>
      <trkpt lat="43.24172" lon="5.6367">
        <ele>518.9</ele>
        <time>2014-10-08T12:09:03Z</time>
      </trkpt>
      <trkpt lat="43.24169" lon="5.63673">
        <ele>519.5</ele>
        <time>2014-10-08T12:09:07Z</time>
      </trkpt>
      <trkpt lat="43.24166" lon="5.63676">
        <ele>519.5</ele>
        <time>2014-10-08T12:09:10Z</time>
      </trkpt>
      <trkpt lat="43.24163" lon="5.6368">
        <ele>520.2</ele>
        <time>2014-10-08T12:09:13Z</time>
      </trkpt>
      <trkpt lat="43.2416" lon="5.63683">
        <ele>520</ele>
        <time>2014-10-08T12:09:16Z</time>
      </trkpt>
      <trkpt lat="43.24157" lon="5.63686">
        <ele>519.5</ele>
        <time>2014-10-08T12:09:19Z</time>
      </trkpt>
      <trkpt lat="43.24154" lon="5.63689">
        <ele>520.2</ele>
        <time>2014-10-08T12:09:22Z</time>
      </trkpt>
      <trkpt lat="43.24151" lon="5.63692">
        <ele>520.7</ele>
        <time>2014-10-08T12:09:25Z</time>
      </trkpt>
      <trkpt lat="43.24148" lon="5.63695">
        <ele>520</ele>
        <time>2014-10-08T12:09:28Z</time>
      </trkpt>
      <trkpt lat="43.24145" lon="5.63699">
        <ele>519.4</ele>
        <time>2014-10-08T12:09:31Z</time>
      </trkpt>
      <trkpt lat="43.24142" lon="5.63702">
        <ele>519</ele>
        <time>2014-10-08T12:09:34Z</time>
      </trkpt>
      <trkpt lat="43.24141" lon="5.63703">
        <ele>519</ele>
        <time>2014-10-08T12:09:35Z</time>
      </trkpt>
      <trkpt lat="43.24135" lon="5.63709">
        <ele>519.2</ele>
        <time>2014-10-08T12:09:41Z</time>
      </trkpt>
      <trkpt lat="43.24132" lon="5.63712">
        <ele>519.4</ele>
        <time>2014-10-08T12:09:44Z</time>
      </trkpt>
      <trkpt lat="43.24128" lon="5.63715">
        <ele>521</ele>
        <time>2014-10-08T12:09:48Z</time>
      </trkpt>
      <trkpt lat="43.24125" lon="5.63717">
        <ele>522.5</ele>
        <time>2014-10-08T12:09:51Z</time>
      </trkpt>
      <trkpt lat="43.24122" lon="5.63719">
        <ele>523</ele>
        <time>2014-10-08T12:09:54Z</time>
      </trkpt>
      <trkpt lat="43.24118" lon="5.63721">
        <ele>523.5</ele>
        <time>2014-10-08T12:09:57Z</time>
      </trkpt>
      <trkpt lat="43.24115" lon="5.63723">
        <ele>523.4</ele>
        <time>2014-10-08T12:10:00Z</time>
      </trkpt>
      <trkpt lat="43.24111" lon="5.63725">
        <ele>522.7</ele>
        <time>2014-10-08T12:10:03Z</time>
      </trkpt>
      <trkpt lat="43.24108" lon="5.63727">
        <ele>522.5</ele>
        <time>2014-10-08T12:10:06Z</time>
      </trkpt>
      <trkpt lat="43.24105" lon="5.63729">
        <ele>522.7</ele>
        <time>2014-10-08T12:10:09Z</time>
      </trkpt>
      <trkpt lat="43.24102" lon="5.63731">
        <ele>522.7</ele>
        <time>2014-10-08T12:10:12Z</time>
      </trkpt>
      <trkpt lat="43.24098" lon="5.63733">
        <ele>522.7</ele>
        <time>2014-10-08T12:10:15Z</time>
      </trkpt>
      <trkpt lat="43.24095" lon="5.63735">
        <ele>522.7</ele>
        <time>2014-10-08T12:10:18Z</time>
      </trkpt>
      <trkpt lat="43.24092" lon="5.63738">
        <ele>521.7</ele>
        <time>2014-10-08T12:10:21Z</time>
      </trkpt>
      <trkpt lat="43.24089" lon="5.63741">
        <ele>521.2</ele>
        <time>2014-10-08T12:10:24Z</time>
      </trkpt>
      <trkpt lat="43.24085" lon="5.63743">
        <ele>521.2</ele>
        <time>2014-10-08T12:10:27Z</time>
      </trkpt>
      <trkpt lat="43.24082" lon="5.63746">
        <ele>521.4</ele>
        <time>2014-10-08T12:10:30Z</time>
      </trkpt>
      <trkpt lat="43.24079" lon="5.6375">
        <ele>521.5</ele>
        <time>2014-10-08T12:10:34Z</time>
      </trkpt>
      <trkpt lat="43.24077" lon="5.63753">
        <ele>520.7</ele>
        <time>2014-10-08T12:10:37Z</time>
      </trkpt>
      <trkpt lat="43.24076" lon="5.63754">
        <ele>520.2</ele>
        <time>2014-10-08T12:10:38Z</time>
      </trkpt>
      <trkpt lat="43.24071" lon="5.6376">
        <ele>520</ele>
        <time>2014-10-08T12:10:44Z</time>
      </trkpt>
      <trkpt lat="43.24069" lon="5.63765">
        <ele>519.9</ele>
        <time>2014-10-08T12:10:48Z</time>
      </trkpt>
      <trkpt lat="43.24067" lon="5.63769">
        <ele>519.5</ele>
        <time>2014-10-08T12:10:51Z</time>
      </trkpt>
      <trkpt lat="43.24065" lon="5.63774">
        <ele>517.5</ele>
        <time>2014-10-08T12:10:54Z</time>
      </trkpt>
      <trkpt lat="43.24063" lon="5.63778">
        <ele>516.5</ele>
        <time>2014-10-08T12:10:57Z</time>
      </trkpt>
      <trkpt lat="43.24061" lon="5.63783">
        <ele>515.2</ele>
        <time>2014-10-08T12:11:00Z</time>
      </trkpt>
      <trkpt lat="43.24058" lon="5.63787">
        <ele>513.5</ele>
        <time>2014-10-08T12:11:03Z</time>
      </trkpt>
      <trkpt lat="43.24057" lon="5.63792">
        <ele>512</ele>
        <time>2014-10-08T12:11:06Z</time>
      </trkpt>
      <trkpt lat="43.24055" lon="5.63798">
        <ele>511.7</ele>
        <time>2014-10-08T12:11:10Z</time>
      </trkpt>
      <trkpt lat="43.24053" lon="5.63803">
        <ele>511.3</ele>
        <time>2014-10-08T12:11:14Z</time>
      </trkpt>
      <trkpt lat="43.24052" lon="5.63808">
        <ele>510.2</ele>
        <time>2014-10-08T12:11:17Z</time>
      </trkpt>
      <trkpt lat="43.2405" lon="5.63813">
        <ele>509.1</ele>
        <time>2014-10-08T12:11:20Z</time>
      </trkpt>
      <trkpt lat="43.24048" lon="5.63818">
        <ele>508.7</ele>
        <time>2014-10-08T12:11:24Z</time>
      </trkpt>
      <trkpt lat="43.24045" lon="5.63822">
        <ele>509.3</ele>
        <time>2014-10-08T12:11:28Z</time>
      </trkpt>
      <trkpt lat="43.24044" lon="5.63827">
        <ele>508.6</ele>
        <time>2014-10-08T12:11:32Z</time>
      </trkpt>
      <trkpt lat="43.24042" lon="5.63831">
        <ele>509.7</ele>
        <time>2014-10-08T12:11:35Z</time>
      </trkpt>
      <trkpt lat="43.2404" lon="5.63836">
        <ele>509.6</ele>
        <time>2014-10-08T12:11:38Z</time>
      </trkpt>
      <trkpt lat="43.2404" lon="5.63838">
        <ele>509.3</ele>
        <time>2014-10-08T12:11:39Z</time>
      </trkpt>
      <trkpt lat="43.24039" lon="5.63846">
        <ele>508.5</ele>
        <time>2014-10-08T12:11:44Z</time>
      </trkpt>
      <trkpt lat="43.24039" lon="5.63851">
        <ele>508.2</ele>
        <time>2014-10-08T12:11:46Z</time>
      </trkpt>
      <trkpt lat="43.24038" lon="5.63856">
        <ele>507.7</ele>
        <time>2014-10-08T12:11:49Z</time>
      </trkpt>
      <trkpt lat="43.24037" lon="5.63862">
        <ele>506.8</ele>
        <time>2014-10-08T12:11:52Z</time>
      </trkpt>
      <trkpt lat="43.24036" lon="5.63867">
        <ele>506</ele>
        <time>2014-10-08T12:11:55Z</time>
      </trkpt>
      <trkpt lat="43.24036" lon="5.63872">
        <ele>506.1</ele>
        <time>2014-10-08T12:11:58Z</time>
      </trkpt>
      <trkpt lat="43.24036" lon="5.63878">
        <ele>506.2</ele>
        <time>2014-10-08T12:12:02Z</time>
      </trkpt>
      <trkpt lat="43.24035" lon="5.63883">
        <ele>505.3</ele>
        <time>2014-10-08T12:12:05Z</time>
      </trkpt>
      <trkpt lat="43.24035" lon="5.63889">
        <ele>504.2</ele>
        <time>2014-10-08T12:12:08Z</time>
      </trkpt>
      <trkpt lat="43.24035" lon="5.63894">
        <ele>504.2</ele>
        <time>2014-10-08T12:12:11Z</time>
      </trkpt>
      <trkpt lat="43.24035" lon="5.639">
        <ele>504.1</ele>
        <time>2014-10-08T12:12:14Z</time>
      </trkpt>
      <trkpt lat="43.24034" lon="5.63905">
        <ele>503.3</ele>
        <time>2014-10-08T12:12:17Z</time>
      </trkpt>
      <trkpt lat="43.24034" lon="5.6391">
        <ele>503.2</ele>
        <time>2014-10-08T12:12:20Z</time>
      </trkpt>
      <trkpt lat="43.24033" lon="5.63916">
        <ele>502.3</ele>
        <time>2014-10-08T12:12:24Z</time>
      </trkpt>
      <trkpt lat="43.24032" lon="5.63922">
        <ele>502.7</ele>
        <time>2014-10-08T12:12:28Z</time>
      </trkpt>
      <trkpt lat="43.24032" lon="5.63927">
        <ele>502.3</ele>
        <time>2014-10-08T12:12:31Z</time>
      </trkpt>
      <trkpt lat="43.24031" lon="5.63933">
        <ele>501.2</ele>
        <time>2014-10-08T12:12:35Z</time>
      </trkpt>
      <trkpt lat="43.2403" lon="5.63938">
        <ele>501.6</ele>
        <time>2014-10-08T12:12:39Z</time>
      </trkpt>
      <trkpt lat="43.24029" lon="5.63939">
        <ele>501.2</ele>
        <time>2014-10-08T12:12:40Z</time>
      </trkpt>
      <trkpt lat="43.24027" lon="5.63949">
        <ele>499</ele>
        <time>2014-10-08T12:12:47Z</time>
      </trkpt>
      <trkpt lat="43.24026" lon="5.63953">
        <ele>498.6</ele>
        <time>2014-10-08T12:12:49Z</time>
      </trkpt>
      <trkpt lat="43.24025" lon="5.63958">
        <ele>499.2</ele>
        <time>2014-10-08T12:12:52Z</time>
      </trkpt>
      <trkpt lat="43.24025" lon="5.63963">
        <ele>498.7</ele>
        <time>2014-10-08T12:12:55Z</time>
      </trkpt>
      <trkpt lat="43.24025" lon="5.63969">
        <ele>498.2</ele>
        <time>2014-10-08T12:12:59Z</time>
      </trkpt>
      <trkpt lat="43.24024" lon="5.63975">
        <ele>498.1</ele>
        <time>2014-10-08T12:13:02Z</time>
      </trkpt>
      <trkpt lat="43.24024" lon="5.63981">
        <ele>498.2</ele>
        <time>2014-10-08T12:13:06Z</time>
      </trkpt>
      <trkpt lat="43.24023" lon="5.63986">
        <ele>498.3</ele>
        <time>2014-10-08T12:13:09Z</time>
      </trkpt>
      <trkpt lat="43.24022" lon="5.63992">
        <ele>498.5</ele>
        <time>2014-10-08T12:13:13Z</time>
      </trkpt>
      <trkpt lat="43.24021" lon="5.63997">
        <ele>498.1</ele>
        <time>2014-10-08T12:13:16Z</time>
      </trkpt>
      <trkpt lat="43.2402" lon="5.64001">
        <ele>498.5</ele>
        <time>2014-10-08T12:13:19Z</time>
      </trkpt>
      <trkpt lat="43.24018" lon="5.64005">
        <ele>498.7</ele>
        <time>2014-10-08T12:13:21Z</time>
      </trkpt>
      <trkpt lat="43.24017" lon="5.6401">
        <ele>498.3</ele>
        <time>2014-10-08T12:13:23Z</time>
      </trkpt>
      <trkpt lat="43.24016" lon="5.64015">
        <ele>497.1</ele>
        <time>2014-10-08T12:13:26Z</time>
      </trkpt>
      <trkpt lat="43.24015" lon="5.6402">
        <ele>496.7</ele>
        <time>2014-10-08T12:13:29Z</time>
      </trkpt>
      <trkpt lat="43.24014" lon="5.64025">
        <ele>495.1</ele>
        <time>2014-10-08T12:13:33Z</time>
      </trkpt>
      <trkpt lat="43.24013" lon="5.64031">
        <ele>495.2</ele>
        <time>2014-10-08T12:13:36Z</time>
      </trkpt>
      <trkpt lat="43.24011" lon="5.64035">
        <ele>495.5</ele>
        <time>2014-10-08T12:13:39Z</time>
      </trkpt>
      <trkpt lat="43.24011" lon="5.64036">
        <ele>495.5</ele>
        <time>2014-10-08T12:13:40Z</time>
      </trkpt>
      <trkpt lat="43.24008" lon="5.64045">
        <ele>495.7</ele>
        <time>2014-10-08T12:13:46Z</time>
      </trkpt>
      <trkpt lat="43.24006" lon="5.6405">
        <ele>495.7</ele>
        <time>2014-10-08T12:13:49Z</time>
      </trkpt>
      <trkpt lat="43.24003" lon="5.64055">
        <ele>495.6</ele>
        <time>2014-10-08T12:13:52Z</time>
      </trkpt>
      <trkpt lat="43.24001" lon="5.64059">
        <ele>494.7</ele>
        <time>2014-10-08T12:13:56Z</time>
      </trkpt>
      <trkpt lat="43.24" lon="5.64064">
        <ele>493</ele>
        <time>2014-10-08T12:13:59Z</time>
      </trkpt>
      <trkpt lat="43.23999" lon="5.64068">
        <ele>493.2</ele>
        <time>2014-10-08T12:14:02Z</time>
      </trkpt>
      <trkpt lat="43.23997" lon="5.64073">
        <ele>492.6</ele>
        <time>2014-10-08T12:14:05Z</time>
      </trkpt>
      <trkpt lat="43.23995" lon="5.64078">
        <ele>491.6</ele>
        <time>2014-10-08T12:14:08Z</time>
      </trkpt>
      <trkpt lat="43.23993" lon="5.64083">
        <ele>489.7</ele>
        <time>2014-10-08T12:14:12Z</time>
      </trkpt>
      <trkpt lat="43.23991" lon="5.64088">
        <ele>488.7</ele>
        <time>2014-10-08T12:14:15Z</time>
      </trkpt>
      <trkpt lat="43.2399" lon="5.64092">
        <ele>488.2</ele>
        <time>2014-10-08T12:14:18Z</time>
      </trkpt>
      <trkpt lat="43.23988" lon="5.64096">
        <ele>488.3</ele>
        <time>2014-10-08T12:14:21Z</time>
      </trkpt>
      <trkpt lat="43.23987" lon="5.64102">
        <ele>487.1</ele>
        <time>2014-10-08T12:14:25Z</time>
      </trkpt>
      <trkpt lat="43.23985" lon="5.64106">
        <ele>486.8</ele>
        <time>2014-10-08T12:14:28Z</time>
      </trkpt>
      <trkpt lat="43.23983" lon="5.64111">
        <ele>485.7</ele>
        <time>2014-10-08T12:14:32Z</time>
      </trkpt>
      <trkpt lat="43.23981" lon="5.64116">
        <ele>485.1</ele>
        <time>2014-10-08T12:14:36Z</time>
      </trkpt>
      <trkpt lat="43.23979" lon="5.64121">
        <ele>484.2</ele>
        <time>2014-10-08T12:14:39Z</time>
      </trkpt>
      <trkpt lat="43.23977" lon="5.64125">
        <ele>483.6</ele>
        <time>2014-10-08T12:14:42Z</time>
      </trkpt>
      <trkpt lat="43.23977" lon="5.64127">
        <ele>484</ele>
        <time>2014-10-08T12:14:43Z</time>
      </trkpt>
      <trkpt lat="43.23973" lon="5.64135">
        <ele>484.8</ele>
        <time>2014-10-08T12:14:48Z</time>
      </trkpt>
      <trkpt lat="43.23971" lon="5.6414">
        <ele>485.7</ele>
        <time>2014-10-08T12:14:51Z</time>
      </trkpt>
      <trkpt lat="43.23969" lon="5.64145">
        <ele>484.8</ele>
        <time>2014-10-08T12:14:54Z</time>
      </trkpt>
      <trkpt lat="43.23967" lon="5.6415">
        <ele>484.2</ele>
        <time>2014-10-08T12:14:57Z</time>
      </trkpt>
      <trkpt lat="43.23966" lon="5.64155">
        <ele>483.5</ele>
        <time>2014-10-08T12:15:00Z</time>
      </trkpt>
      <trkpt lat="43.23965" lon="5.6416">
        <ele>483.7</ele>
        <time>2014-10-08T12:15:03Z</time>
      </trkpt>
      <trkpt lat="43.23965" lon="5.64164">
        <ele>484.6</ele>
        <time>2014-10-08T12:15:06Z</time>
      </trkpt>
      <trkpt lat="43.23963" lon="5.6417">
        <ele>485.6</ele>
        <time>2014-10-08T12:15:09Z</time>
      </trkpt>
      <trkpt lat="43.23962" lon="5.64176">
        <ele>486.6</ele>
        <time>2014-10-08T12:15:12Z</time>
      </trkpt>
      <trkpt lat="43.2396" lon="5.64181">
        <ele>487.7</ele>
        <time>2014-10-08T12:15:15Z</time>
      </trkpt>
      <trkpt lat="43.23959" lon="5.64186">
        <ele>488.2</ele>
        <time>2014-10-08T12:15:18Z</time>
      </trkpt>
      <trkpt lat="43.23959" lon="5.64191">
        <ele>488.6</ele>
        <time>2014-10-08T12:15:21Z</time>
      </trkpt>
      <trkpt lat="43.23958" lon="5.64197">
        <ele>488.7</ele>
        <time>2014-10-08T12:15:24Z</time>
      </trkpt>
      <trkpt lat="43.23958" lon="5.64202">
        <ele>488.8</ele>
        <time>2014-10-08T12:15:27Z</time>
      </trkpt>
      <trkpt lat="43.23958" lon="5.64208">
        <ele>489</ele>
        <time>2014-10-08T12:15:30Z</time>
      </trkpt>
      <trkpt lat="43.23959" lon="5.64214">
        <ele>488.7</ele>
        <time>2014-10-08T12:15:33Z</time>
      </trkpt>
      <trkpt lat="43.2396" lon="5.64219">
        <ele>488.3</ele>
        <time>2014-10-08T12:15:36Z</time>
      </trkpt>
      <trkpt lat="43.23961" lon="5.64224">
        <ele>488.2</ele>
        <time>2014-10-08T12:15:39Z</time>
      </trkpt>
      <trkpt lat="43.23962" lon="5.64229">
        <ele>488.5</ele>
        <time>2014-10-08T12:15:42Z</time>
      </trkpt>
      <trkpt lat="43.23962" lon="5.64235">
        <ele>488.2</ele>
        <time>2014-10-08T12:15:45Z</time>
      </trkpt>
      <trkpt lat="43.23963" lon="5.64237">
        <ele>488.2</ele>
        <time>2014-10-08T12:15:46Z</time>
      </trkpt>
      <trkpt lat="43.23964" lon="5.64245">
        <ele>488</ele>
        <time>2014-10-08T12:15:51Z</time>
      </trkpt>
      <trkpt lat="43.23966" lon="5.6425">
        <ele>487.6</ele>
        <time>2014-10-08T12:15:54Z</time>
      </trkpt>
      <trkpt lat="43.23967" lon="5.64255">
        <ele>487</ele>
        <time>2014-10-08T12:15:57Z</time>
      </trkpt>
      <trkpt lat="43.23968" lon="5.64259">
        <ele>487</ele>
        <time>2014-10-08T12:16:00Z</time>
      </trkpt>
      <trkpt lat="43.23969" lon="5.64264">
        <ele>486.2</ele>
        <time>2014-10-08T12:16:03Z</time>
      </trkpt>
      <trkpt lat="43.23971" lon="5.64268">
        <ele>486.2</ele>
        <time>2014-10-08T12:16:06Z</time>
      </trkpt>
      <trkpt lat="43.23973" lon="5.64272">
        <ele>487.1</ele>
        <time>2014-10-08T12:16:09Z</time>
      </trkpt>
      <trkpt lat="43.23975" lon="5.64277">
        <ele>487.7</ele>
        <time>2014-10-08T12:16:12Z</time>
      </trkpt>
      <trkpt lat="43.23976" lon="5.64281">
        <ele>488.5</ele>
        <time>2014-10-08T12:16:15Z</time>
      </trkpt>
      <trkpt lat="43.23975" lon="5.64287">
        <ele>488.2</ele>
        <time>2014-10-08T12:16:18Z</time>
      </trkpt>
      <trkpt lat="43.23976" lon="5.64293">
        <ele>489</ele>
        <time>2014-10-08T12:16:22Z</time>
      </trkpt>
      <trkpt lat="43.23977" lon="5.64298">
        <ele>490.6</ele>
        <time>2014-10-08T12:16:26Z</time>
      </trkpt>
      <trkpt lat="43.23976" lon="5.64304">
        <ele>489.6</ele>
        <time>2014-10-08T12:16:29Z</time>
      </trkpt>
      <trkpt lat="43.23976" lon="5.64309">
        <ele>489.8</ele>
        <time>2014-10-08T12:16:32Z</time>
      </trkpt>
      <trkpt lat="43.23977" lon="5.64315">
        <ele>490.5</ele>
        <time>2014-10-08T12:16:36Z</time>
      </trkpt>
      <trkpt lat="43.23978" lon="5.6432">
        <ele>490.2</ele>
        <time>2014-10-08T12:16:39Z</time>
      </trkpt>
      <trkpt lat="43.23978" lon="5.64325">
        <ele>490.1</ele>
        <time>2014-10-08T12:16:42Z</time>
      </trkpt>
      <trkpt lat="43.23978" lon="5.6433">
        <ele>489.7</ele>
        <time>2014-10-08T12:16:45Z</time>
      </trkpt>
      <trkpt lat="43.23979" lon="5.64336">
        <ele>489.6</ele>
        <time>2014-10-08T12:16:49Z</time>
      </trkpt>
      <trkpt lat="43.23979" lon="5.64338">
        <ele>489.6</ele>
        <time>2014-10-08T12:16:50Z</time>
      </trkpt>
      <trkpt lat="43.23979" lon="5.64347">
        <ele>489.7</ele>
        <time>2014-10-08T12:16:56Z</time>
      </trkpt>
      <trkpt lat="43.23978" lon="5.64352">
        <ele>490.8</ele>
        <time>2014-10-08T12:16:59Z</time>
      </trkpt>
      <trkpt lat="43.23978" lon="5.64357">
        <ele>492.2</ele>
        <time>2014-10-08T12:17:02Z</time>
      </trkpt>
      <trkpt lat="43.23978" lon="5.64362">
        <ele>492.6</ele>
        <time>2014-10-08T12:17:06Z</time>
      </trkpt>
      <trkpt lat="43.23979" lon="5.64368">
        <ele>492</ele>
        <time>2014-10-08T12:17:09Z</time>
      </trkpt>
      <trkpt lat="43.23979" lon="5.64373">
        <ele>492.5</ele>
        <time>2014-10-08T12:17:12Z</time>
      </trkpt>
      <trkpt lat="43.23979" lon="5.64378">
        <ele>492.7</ele>
        <time>2014-10-08T12:17:15Z</time>
      </trkpt>
      <trkpt lat="43.2398" lon="5.64384">
        <ele>493.2</ele>
        <time>2014-10-08T12:17:19Z</time>
      </trkpt>
      <trkpt lat="43.2398" lon="5.6439">
        <ele>494.2</ele>
        <time>2014-10-08T12:17:23Z</time>
      </trkpt>
      <trkpt lat="43.23981" lon="5.64395">
        <ele>494.5</ele>
        <time>2014-10-08T12:17:26Z</time>
      </trkpt>
      <trkpt lat="43.23981" lon="5.644">
        <ele>494.7</ele>
        <time>2014-10-08T12:17:29Z</time>
      </trkpt>
      <trkpt lat="43.2398" lon="5.64406">
        <ele>494</ele>
        <time>2014-10-08T12:17:32Z</time>
      </trkpt>
      <trkpt lat="43.2398" lon="5.64411">
        <ele>493.8</ele>
        <time>2014-10-08T12:17:35Z</time>
      </trkpt>
      <trkpt lat="43.2398" lon="5.64417">
        <ele>493.5</ele>
        <time>2014-10-08T12:17:39Z</time>
      </trkpt>
      <trkpt lat="43.2398" lon="5.64423">
        <ele>493.2</ele>
        <time>2014-10-08T12:17:42Z</time>
      </trkpt>
      <trkpt lat="43.2398" lon="5.64428">
        <ele>492.7</ele>
        <time>2014-10-08T12:17:45Z</time>
      </trkpt>
      <trkpt lat="43.2398" lon="5.64433">
        <ele>492.3</ele>
        <time>2014-10-08T12:17:49Z</time>
      </trkpt>
      <trkpt lat="43.2398" lon="5.64438">
        <ele>491.8</ele>
        <time>2014-10-08T12:17:52Z</time>
      </trkpt>
      <trkpt lat="43.2398" lon="5.64439">
        <ele>491.7</ele>
        <time>2014-10-08T12:17:53Z</time>
      </trkpt>
      <trkpt lat="43.23982" lon="5.64448">
        <ele>490.3</ele>
        <time>2014-10-08T12:17:59Z</time>
      </trkpt>
      <trkpt lat="43.23984" lon="5.64454">
        <ele>489.5</ele>
        <time>2014-10-08T12:18:03Z</time>
      </trkpt>
      <trkpt lat="43.23985" lon="5.6446">
        <ele>488.6</ele>
        <time>2014-10-08T12:18:07Z</time>
      </trkpt>
      <trkpt lat="43.23988" lon="5.64464">
        <ele>487.2</ele>
        <time>2014-10-08T12:18:11Z</time>
      </trkpt>
      <trkpt lat="43.2399" lon="5.64469">
        <ele>485.7</ele>
        <time>2014-10-08T12:18:15Z</time>
      </trkpt>
      <trkpt lat="43.23994" lon="5.64472">
        <ele>484</ele>
        <time>2014-10-08T12:18:19Z</time>
      </trkpt>
      <trkpt lat="43.23996" lon="5.64478">
        <ele>481.3</ele>
        <time>2014-10-08T12:18:23Z</time>
      </trkpt>
      <trkpt lat="43.23998" lon="5.64482">
        <ele>479.6</ele>
        <time>2014-10-08T12:18:27Z</time>
      </trkpt>
      <trkpt lat="43.24002" lon="5.64484">
        <ele>478.2</ele>
        <time>2014-10-08T12:18:31Z</time>
      </trkpt>
      <trkpt lat="43.24004" lon="5.64489">
        <ele>476.2</ele>
        <time>2014-10-08T12:18:35Z</time>
      </trkpt>
      <trkpt lat="43.24007" lon="5.64493">
        <ele>475.8</ele>
        <time>2014-10-08T12:18:38Z</time>
      </trkpt>
      <trkpt lat="43.2401" lon="5.64496">
        <ele>475.2</ele>
        <time>2014-10-08T12:18:42Z</time>
      </trkpt>
      <trkpt lat="43.2401" lon="5.64502">
        <ele>475.5</ele>
        <time>2014-10-08T12:18:45Z</time>
      </trkpt>
      <trkpt lat="43.24011" lon="5.64506">
        <ele>475.8</ele>
        <time>2014-10-08T12:18:47Z</time>
      </trkpt>
      <trkpt lat="43.24012" lon="5.64512">
        <ele>476.2</ele>
        <time>2014-10-08T12:18:50Z</time>
      </trkpt>
      <trkpt lat="43.24013" lon="5.64517">
        <ele>477.3</ele>
        <time>2014-10-08T12:18:53Z</time>
      </trkpt>
      <trkpt lat="43.24013" lon="5.64519">
        <ele>477.6</ele>
        <time>2014-10-08T12:18:54Z</time>
      </trkpt>
      <trkpt lat="43.24013" lon="5.64528">
        <ele>478.7</ele>
        <time>2014-10-08T12:18:59Z</time>
      </trkpt>
      <trkpt lat="43.24013" lon="5.64534">
        <ele>479.8</ele>
        <time>2014-10-08T12:19:03Z</time>
      </trkpt>
      <trkpt lat="43.24011" lon="5.64538">
        <ele>482</ele>
        <time>2014-10-08T12:19:05Z</time>
      </trkpt>
      <trkpt lat="43.2401" lon="5.64543">
        <ele>483.1</ele>
        <time>2014-10-08T12:19:08Z</time>
      </trkpt>
      <trkpt lat="43.24008" lon="5.64549">
        <ele>483.8</ele>
        <time>2014-10-08T12:19:12Z</time>
      </trkpt>
      <trkpt lat="43.24007" lon="5.64553">
        <ele>485</ele>
        <time>2014-10-08T12:19:15Z</time>
      </trkpt>
      <trkpt lat="43.24005" lon="5.64558">
        <ele>484.5</ele>
        <time>2014-10-08T12:19:20Z</time>
      </trkpt>
      <trkpt lat="43.24002" lon="5.64562">
        <ele>485.3</ele>
        <time>2014-10-08T12:19:23Z</time>
      </trkpt>
      <trkpt lat="43.23999" lon="5.64565">
        <ele>486.3</ele>
        <time>2014-10-08T12:19:26Z</time>
      </trkpt>
      <trkpt lat="43.23996" lon="5.6457">
        <ele>486.7</ele>
        <time>2014-10-08T12:19:30Z</time>
      </trkpt>
      <trkpt lat="43.23994" lon="5.64573">
        <ele>485.7</ele>
        <time>2014-10-08T12:19:33Z</time>
      </trkpt>
      <trkpt lat="43.2399" lon="5.64577">
        <ele>485.6</ele>
        <time>2014-10-08T12:19:36Z</time>
      </trkpt>
      <trkpt lat="43.23987" lon="5.6458">
        <ele>486</ele>
        <time>2014-10-08T12:19:39Z</time>
      </trkpt>
      <trkpt lat="43.23984" lon="5.64582">
        <ele>488.3</ele>
        <time>2014-10-08T12:19:42Z</time>
      </trkpt>
      <trkpt lat="43.2398" lon="5.64585">
        <ele>489</ele>
        <time>2014-10-08T12:19:45Z</time>
      </trkpt>
      <trkpt lat="43.23977" lon="5.64589">
        <ele>489.3</ele>
        <time>2014-10-08T12:19:49Z</time>
      </trkpt>
      <trkpt lat="43.23974" lon="5.64593">
        <ele>489.2</ele>
        <time>2014-10-08T12:19:52Z</time>
      </trkpt>
      <trkpt lat="43.23971" lon="5.64596">
        <ele>489</ele>
        <time>2014-10-08T12:19:55Z</time>
      </trkpt>
      <trkpt lat="43.2397" lon="5.64598">
        <ele>489.1</ele>
        <time>2014-10-08T12:19:56Z</time>
      </trkpt>
      <trkpt lat="43.23966" lon="5.64604">
        <ele>487.8</ele>
        <time>2014-10-08T12:20:01Z</time>
      </trkpt>
      <trkpt lat="43.23964" lon="5.64608">
        <ele>487.3</ele>
        <time>2014-10-08T12:20:04Z</time>
      </trkpt>
      <trkpt lat="43.23961" lon="5.64611">
        <ele>487.2</ele>
        <time>2014-10-08T12:20:07Z</time>
      </trkpt>
      <trkpt lat="43.23959" lon="5.64616">
        <ele>486.1</ele>
        <time>2014-10-08T12:20:10Z</time>
      </trkpt>
      <trkpt lat="43.23956" lon="5.64619">
        <ele>486.2</ele>
        <time>2014-10-08T12:20:13Z</time>
      </trkpt>
      <trkpt lat="43.23953" lon="5.64622">
        <ele>486.2</ele>
        <time>2014-10-08T12:20:16Z</time>
      </trkpt>
      <trkpt lat="43.23949" lon="5.64626">
        <ele>486.3</ele>
        <time>2014-10-08T12:20:20Z</time>
      </trkpt>
      <trkpt lat="43.23946" lon="5.64629">
        <ele>486.2</ele>
        <time>2014-10-08T12:20:23Z</time>
      </trkpt>
      <trkpt lat="43.23944" lon="5.64631">
        <ele>486.2</ele>
        <time>2014-10-08T12:20:26Z</time>
      </trkpt>
      <trkpt lat="43.23941" lon="5.64635">
        <ele>486.2</ele>
        <time>2014-10-08T12:20:29Z</time>
      </trkpt>
      <trkpt lat="43.23938" lon="5.64638">
        <ele>486</ele>
        <time>2014-10-08T12:20:32Z</time>
      </trkpt>
      <trkpt lat="43.23935" lon="5.6464">
        <ele>486</ele>
        <time>2014-10-08T12:20:35Z</time>
      </trkpt>
      <trkpt lat="43.23932" lon="5.64643">
        <ele>486.5</ele>
        <time>2014-10-08T12:20:38Z</time>
      </trkpt>
      <trkpt lat="43.23929" lon="5.64646">
        <ele>485.8</ele>
        <time>2014-10-08T12:20:41Z</time>
      </trkpt>
      <trkpt lat="43.23926" lon="5.6465">
        <ele>484.3</ele>
        <time>2014-10-08T12:20:44Z</time>
      </trkpt>
      <trkpt lat="43.23923" lon="5.64655">
        <ele>483.5</ele>
        <time>2014-10-08T12:20:48Z</time>
      </trkpt>
      <trkpt lat="43.23921" lon="5.64658">
        <ele>483.5</ele>
        <time>2014-10-08T12:20:51Z</time>
      </trkpt>
      <trkpt lat="43.23918" lon="5.64662">
        <ele>483</ele>
        <time>2014-10-08T12:20:54Z</time>
      </trkpt>
      <trkpt lat="43.23916" lon="5.64665">
        <ele>483.1</ele>
        <time>2014-10-08T12:20:57Z</time>
      </trkpt>
      <trkpt lat="43.23915" lon="5.64667">
        <ele>483.3</ele>
        <time>2014-10-08T12:20:58Z</time>
      </trkpt>
      <trkpt lat="43.23911" lon="5.64672">
        <ele>483.2</ele>
        <time>2014-10-08T12:21:03Z</time>
      </trkpt>
      <trkpt lat="43.23908" lon="5.64676">
        <ele>482.8</ele>
        <time>2014-10-08T12:21:06Z</time>
      </trkpt>
      <trkpt lat="43.23905" lon="5.64679">
        <ele>483.2</ele>
        <time>2014-10-08T12:21:09Z</time>
      </trkpt>
      <trkpt lat="43.23901" lon="5.64682">
        <ele>483.7</ele>
        <time>2014-10-08T12:21:13Z</time>
      </trkpt>
      <trkpt lat="43.23898" lon="5.64686">
        <ele>484</ele>
        <time>2014-10-08T12:21:17Z</time>
      </trkpt>
      <trkpt lat="43.23895" lon="5.64688">
        <ele>484.5</ele>
        <time>2014-10-08T12:21:20Z</time>
      </trkpt>
      <trkpt lat="43.23891" lon="5.64692">
        <ele>483.7</ele>
        <time>2014-10-08T12:21:23Z</time>
      </trkpt>
      <trkpt lat="43.23888" lon="5.64695">
        <ele>483.5</ele>
        <time>2014-10-08T12:21:26Z</time>
      </trkpt>
      <trkpt lat="43.23886" lon="5.64698">
        <ele>482.7</ele>
        <time>2014-10-08T12:21:29Z</time>
      </trkpt>
      <trkpt lat="43.23882" lon="5.64702">
        <ele>482</ele>
        <time>2014-10-08T12:21:32Z</time>
      </trkpt>
      <trkpt lat="43.23879" lon="5.64706">
        <ele>481.7</ele>
        <time>2014-10-08T12:21:35Z</time>
      </trkpt>
      <trkpt lat="43.23876" lon="5.6471">
        <ele>481.6</ele>
        <time>2014-10-08T12:21:39Z</time>
      </trkpt>
      <trkpt lat="43.23873" lon="5.64713">
        <ele>481.5</ele>
        <time>2014-10-08T12:21:43Z</time>
      </trkpt>
      <trkpt lat="43.23869" lon="5.64717">
        <ele>481.3</ele>
        <time>2014-10-08T12:21:47Z</time>
      </trkpt>
      <trkpt lat="43.23866" lon="5.6472">
        <ele>481</ele>
        <time>2014-10-08T12:21:50Z</time>
      </trkpt>
      <trkpt lat="43.23863" lon="5.64724">
        <ele>480.7</ele>
        <time>2014-10-08T12:21:54Z</time>
      </trkpt>
      <trkpt lat="43.23861" lon="5.64728">
        <ele>480.7</ele>
        <time>2014-10-08T12:21:57Z</time>
      </trkpt>
      <trkpt lat="43.23859" lon="5.64732">
        <ele>479.8</ele>
        <time>2014-10-08T12:22:00Z</time>
      </trkpt>
      <trkpt lat="43.23858" lon="5.64734">
        <ele>479.5</ele>
        <time>2014-10-08T12:22:01Z</time>
      </trkpt>
      <trkpt lat="43.23854" lon="5.64742">
        <ele>478.2</ele>
        <time>2014-10-08T12:22:07Z</time>
      </trkpt>
      <trkpt lat="43.23853" lon="5.64747">
        <ele>476.2</ele>
        <time>2014-10-08T12:22:10Z</time>
      </trkpt>
      <trkpt lat="43.2385" lon="5.64751">
        <ele>475.2</ele>
        <time>2014-10-08T12:22:13Z</time>
      </trkpt>
      <trkpt lat="43.23848" lon="5.64755">
        <ele>474.2</ele>
        <time>2014-10-08T12:22:16Z</time>
      </trkpt>
      <trkpt lat="43.23846" lon="5.64759">
        <ele>474.5</ele>
        <time>2014-10-08T12:22:19Z</time>
      </trkpt>
      <trkpt lat="43.23843" lon="5.64763">
        <ele>474.5</ele>
        <time>2014-10-08T12:22:22Z</time>
      </trkpt>
      <trkpt lat="43.23841" lon="5.64767">
        <ele>474.8</ele>
        <time>2014-10-08T12:22:25Z</time>
      </trkpt>
      <trkpt lat="43.23838" lon="5.64771">
        <ele>474.6</ele>
        <time>2014-10-08T12:22:29Z</time>
      </trkpt>
      <trkpt lat="43.23836" lon="5.64775">
        <ele>474.6</ele>
        <time>2014-10-08T12:22:32Z</time>
      </trkpt>
      <trkpt lat="43.23834" lon="5.64779">
        <ele>474.2</ele>
        <time>2014-10-08T12:22:35Z</time>
      </trkpt>
      <trkpt lat="43.23833" lon="5.64784">
        <ele>472.8</ele>
        <time>2014-10-08T12:22:38Z</time>
      </trkpt>
      <trkpt lat="43.23831" lon="5.64789">
        <ele>472.2</ele>
        <time>2014-10-08T12:22:42Z</time>
      </trkpt>
      <trkpt lat="43.23829" lon="5.64794">
        <ele>472.1</ele>
        <time>2014-10-08T12:22:45Z</time>
      </trkpt>
      <trkpt lat="43.23827" lon="5.64799">
        <ele>472.7</ele>
        <time>2014-10-08T12:22:48Z</time>
      </trkpt>
      <trkpt lat="43.23825" lon="5.64805">
        <ele>474</ele>
        <time>2014-10-08T12:22:51Z</time>
      </trkpt>
      <trkpt lat="43.23825" lon="5.64809">
        <ele>473.3</ele>
        <time>2014-10-08T12:22:54Z</time>
      </trkpt>
      <trkpt lat="43.23825" lon="5.64814">
        <ele>472.7</ele>
        <time>2014-10-08T12:22:57Z</time>
      </trkpt>
      <trkpt lat="43.23824" lon="5.64819">
        <ele>472</ele>
        <time>2014-10-08T12:23:00Z</time>
      </trkpt>
      <trkpt lat="43.23824" lon="5.64824">
        <ele>470.8</ele>
        <time>2014-10-08T12:23:03Z</time>
      </trkpt>
      <trkpt lat="43.23824" lon="5.64826">
        <ele>470.7</ele>
        <time>2014-10-08T12:23:04Z</time>
      </trkpt>
      <trkpt lat="43.23822" lon="5.64835">
        <ele>469.1</ele>
        <time>2014-10-08T12:23:09Z</time>
      </trkpt>
      <trkpt lat="43.23821" lon="5.64841">
        <ele>468.2</ele>
        <time>2014-10-08T12:23:12Z</time>
      </trkpt>
      <trkpt lat="43.23821" lon="5.64846">
        <ele>467.6</ele>
        <time>2014-10-08T12:23:15Z</time>
      </trkpt>
      <trkpt lat="43.23821" lon="5.64851">
        <ele>467.3</ele>
        <time>2014-10-08T12:23:18Z</time>
      </trkpt>
      <trkpt lat="43.2382" lon="5.64856">
        <ele>467.2</ele>
        <time>2014-10-08T12:23:21Z</time>
      </trkpt>
      <trkpt lat="43.2382" lon="5.64862">
        <ele>467.1</ele>
        <time>2014-10-08T12:23:24Z</time>
      </trkpt>
      <trkpt lat="43.23821" lon="5.64866">
        <ele>466.6</ele>
        <time>2014-10-08T12:23:27Z</time>
      </trkpt>
      <trkpt lat="43.2382" lon="5.64872">
        <ele>464.5</ele>
        <time>2014-10-08T12:23:31Z</time>
      </trkpt>
      <trkpt lat="43.23819" lon="5.64877">
        <ele>463.6</ele>
        <time>2014-10-08T12:23:34Z</time>
      </trkpt>
      <trkpt lat="43.23817" lon="5.64882">
        <ele>463</ele>
        <time>2014-10-08T12:23:38Z</time>
      </trkpt>
      <trkpt lat="43.23815" lon="5.64888">
        <ele>462.7</ele>
        <time>2014-10-08T12:23:42Z</time>
      </trkpt>
      <trkpt lat="43.23813" lon="5.64893">
        <ele>461.6</ele>
        <time>2014-10-08T12:23:46Z</time>
      </trkpt>
      <trkpt lat="43.23812" lon="5.64898">
        <ele>461.2</ele>
        <time>2014-10-08T12:23:49Z</time>
      </trkpt>
      <trkpt lat="43.23809" lon="5.64902">
        <ele>461.5</ele>
        <time>2014-10-08T12:23:52Z</time>
      </trkpt>
      <trkpt lat="43.23806" lon="5.64907">
        <ele>462.2</ele>
        <time>2014-10-08T12:23:56Z</time>
      </trkpt>
      <trkpt lat="43.23804" lon="5.64911">
        <ele>461.7</ele>
        <time>2014-10-08T12:23:59Z</time>
      </trkpt>
      <trkpt lat="43.23803" lon="5.64915">
        <ele>460.6</ele>
        <time>2014-10-08T12:24:02Z</time>
      </trkpt>
      <trkpt lat="43.23801" lon="5.64919">
        <ele>460.6</ele>
        <time>2014-10-08T12:24:05Z</time>
      </trkpt>
      <trkpt lat="43.23801" lon="5.64921">
        <ele>460.6</ele>
        <time>2014-10-08T12:24:06Z</time>
      </trkpt>
      <trkpt lat="43.23799" lon="5.64929">
        <ele>459.3</ele>
        <time>2014-10-08T12:24:11Z</time>
      </trkpt>
      <trkpt lat="43.23798" lon="5.64934">
        <ele>458.8</ele>
        <time>2014-10-08T12:24:14Z</time>
      </trkpt>
      <trkpt lat="43.23797" lon="5.64938">
        <ele>459.2</ele>
        <time>2014-10-08T12:24:16Z</time>
      </trkpt>
      <trkpt lat="43.23796" lon="5.64944">
        <ele>459</ele>
        <time>2014-10-08T12:24:19Z</time>
      </trkpt>
      <trkpt lat="43.23794" lon="5.64949">
        <ele>459.7</ele>
        <time>2014-10-08T12:24:22Z</time>
      </trkpt>
      <trkpt lat="43.23794" lon="5.64955">
        <ele>459.1</ele>
        <time>2014-10-08T12:24:25Z</time>
      </trkpt>
      <trkpt lat="43.23793" lon="5.6496">
        <ele>458.7</ele>
        <time>2014-10-08T12:24:28Z</time>
      </trkpt>
      <trkpt lat="43.23793" lon="5.64964">
        <ele>458.7</ele>
        <time>2014-10-08T12:24:31Z</time>
      </trkpt>
      <trkpt lat="43.23792" lon="5.64969">
        <ele>459.2</ele>
        <time>2014-10-08T12:24:34Z</time>
      </trkpt>
      <trkpt lat="43.23792" lon="5.64974">
        <ele>459.2</ele>
        <time>2014-10-08T12:24:38Z</time>
      </trkpt>
      <trkpt lat="43.23791" lon="5.64979">
        <ele>460.1</ele>
        <time>2014-10-08T12:24:41Z</time>
      </trkpt>
      <trkpt lat="43.2379" lon="5.64983">
        <ele>460.6</ele>
        <time>2014-10-08T12:24:43Z</time>
      </trkpt>
      <trkpt lat="43.23789" lon="5.64988">
        <ele>459.8</ele>
        <time>2014-10-08T12:24:46Z</time>
      </trkpt>
      <trkpt lat="43.23789" lon="5.64994">
        <ele>459.7</ele>
        <time>2014-10-08T12:24:50Z</time>
      </trkpt>
      <trkpt lat="43.2379" lon="5.64998">
        <ele>459.1</ele>
        <time>2014-10-08T12:24:53Z</time>
      </trkpt>
      <trkpt lat="43.2379" lon="5.65004">
        <ele>458.8</ele>
        <time>2014-10-08T12:24:56Z</time>
      </trkpt>
      <trkpt lat="43.23789" lon="5.65008">
        <ele>459.7</ele>
        <time>2014-10-08T12:24:58Z</time>
      </trkpt>
      <trkpt lat="43.23788" lon="5.65013">
        <ele>459.7</ele>
        <time>2014-10-08T12:25:00Z</time>
      </trkpt>
      <trkpt lat="43.23786" lon="5.65018">
        <ele>458.5</ele>
        <time>2014-10-08T12:25:03Z</time>
      </trkpt>
      <trkpt lat="43.23786" lon="5.65024">
        <ele>458.1</ele>
        <time>2014-10-08T12:25:06Z</time>
      </trkpt>
      <trkpt lat="43.23786" lon="5.65026">
        <ele>458</ele>
        <time>2014-10-08T12:25:07Z</time>
      </trkpt>
      <trkpt lat="43.23786" lon="5.65035">
        <ele>457</ele>
        <time>2014-10-08T12:25:12Z</time>
      </trkpt>
      <trkpt lat="43.23785" lon="5.6504">
        <ele>457.2</ele>
        <time>2014-10-08T12:25:15Z</time>
      </trkpt>
      <trkpt lat="43.23785" lon="5.65045">
        <ele>456.8</ele>
        <time>2014-10-08T12:25:17Z</time>
      </trkpt>
      <trkpt lat="43.23785" lon="5.65051">
        <ele>456.7</ele>
        <time>2014-10-08T12:25:20Z</time>
      </trkpt>
      <trkpt lat="43.23784" lon="5.65056">
        <ele>457.6</ele>
        <time>2014-10-08T12:25:24Z</time>
      </trkpt>
      <trkpt lat="43.23784" lon="5.65061">
        <ele>457.7</ele>
        <time>2014-10-08T12:25:28Z</time>
      </trkpt>
      <trkpt lat="43.23783" lon="5.65066">
        <ele>456</ele>
        <time>2014-10-08T12:25:31Z</time>
      </trkpt>
      <trkpt lat="43.23781" lon="5.65071">
        <ele>455.7</ele>
        <time>2014-10-08T12:25:35Z</time>
      </trkpt>
      <trkpt lat="43.2378" lon="5.65076">
        <ele>456.2</ele>
        <time>2014-10-08T12:25:38Z</time>
      </trkpt>
      <trkpt lat="43.23778" lon="5.6508">
        <ele>456.6</ele>
        <time>2014-10-08T12:25:40Z</time>
      </trkpt>
      <trkpt lat="43.23777" lon="5.65086">
        <ele>456.6</ele>
        <time>2014-10-08T12:25:43Z</time>
      </trkpt>
      <trkpt lat="43.23775" lon="5.6509">
        <ele>457.1</ele>
        <time>2014-10-08T12:25:46Z</time>
      </trkpt>
      <trkpt lat="43.23773" lon="5.65095">
        <ele>457.3</ele>
        <time>2014-10-08T12:25:50Z</time>
      </trkpt>
      <trkpt lat="43.23772" lon="5.651">
        <ele>457.7</ele>
        <time>2014-10-08T12:25:54Z</time>
      </trkpt>
      <trkpt lat="43.23769" lon="5.65104">
        <ele>458.6</ele>
        <time>2014-10-08T12:25:58Z</time>
      </trkpt>
      <trkpt lat="43.23768" lon="5.65109">
        <ele>457.6</ele>
        <time>2014-10-08T12:26:01Z</time>
      </trkpt>
      <trkpt lat="43.23767" lon="5.65114">
        <ele>456.7</ele>
        <time>2014-10-08T12:26:05Z</time>
      </trkpt>
      <trkpt lat="43.23766" lon="5.65118">
        <ele>457</ele>
        <time>2014-10-08T12:26:08Z</time>
      </trkpt>
      <trkpt lat="43.23765" lon="5.6512">
        <ele>457.1</ele>
        <time>2014-10-08T12:26:09Z</time>
      </trkpt>
      <trkpt lat="43.23764" lon="5.65129">
        <ele>454.7</ele>
        <time>2014-10-08T12:26:15Z</time>
      </trkpt>
      <trkpt lat="43.23762" lon="5.65134">
        <ele>454.6</ele>
        <time>2014-10-08T12:26:18Z</time>
      </trkpt>
      <trkpt lat="43.23761" lon="5.65139">
        <ele>452.5</ele>
        <time>2014-10-08T12:26:22Z</time>
      </trkpt>
      <trkpt lat="43.23761" lon="5.65144">
        <ele>450.2</ele>
        <time>2014-10-08T12:26:26Z</time>
      </trkpt>
      <trkpt lat="43.2376" lon="5.6515">
        <ele>449.7</ele>
        <time>2014-10-08T12:26:30Z</time>
      </trkpt>
      <trkpt lat="43.23759" lon="5.65155">
        <ele>449.2</ele>
        <time>2014-10-08T12:26:35Z</time>
      </trkpt>
      <trkpt lat="43.23758" lon="5.65158">
        <ele>449.2</ele>
        <time>2014-10-08T12:26:37Z</time>
      </trkpt>
      <trkpt lat="43.23756" lon="5.65163">
        <ele>450.6</ele>
        <time>2014-10-08T12:26:39Z</time>
      </trkpt>
      <trkpt lat="43.23754" lon="5.65168">
        <ele>451.2</ele>
        <time>2014-10-08T12:26:42Z</time>
      </trkpt>
      <trkpt lat="43.23752" lon="5.65173">
        <ele>451.2</ele>
        <time>2014-10-08T12:26:45Z</time>
      </trkpt>
      <trkpt lat="43.23751" lon="5.65177">
        <ele>451.5</ele>
        <time>2014-10-08T12:26:47Z</time>
      </trkpt>
      <trkpt lat="43.23749" lon="5.65181">
        <ele>453</ele>
        <time>2014-10-08T12:26:49Z</time>
      </trkpt>
      <trkpt lat="43.23747" lon="5.65185">
        <ele>453</ele>
        <time>2014-10-08T12:26:52Z</time>
      </trkpt>
      <trkpt lat="43.23745" lon="5.65191">
        <ele>453.1</ele>
        <time>2014-10-08T12:26:55Z</time>
      </trkpt>
      <trkpt lat="43.23744" lon="5.65196">
        <ele>452.2</ele>
        <time>2014-10-08T12:26:59Z</time>
      </trkpt>
      <trkpt lat="43.23742" lon="5.652">
        <ele>452.1</ele>
        <time>2014-10-08T12:27:03Z</time>
      </trkpt>
      <trkpt lat="43.2374" lon="5.65205">
        <ele>452.5</ele>
        <time>2014-10-08T12:27:07Z</time>
      </trkpt>
      <trkpt lat="43.23738" lon="5.65209">
        <ele>451.8</ele>
        <time>2014-10-08T12:27:10Z</time>
      </trkpt>
      <trkpt lat="43.23737" lon="5.65211">
        <ele>451.5</ele>
        <time>2014-10-08T12:27:11Z</time>
      </trkpt>
      <trkpt lat="43.23734" lon="5.65218">
        <ele>450.7</ele>
        <time>2014-10-08T12:27:16Z</time>
      </trkpt>
      <trkpt lat="43.23732" lon="5.65223">
        <ele>450.2</ele>
        <time>2014-10-08T12:27:20Z</time>
      </trkpt>
      <trkpt lat="43.23729" lon="5.65228">
        <ele>449.2</ele>
        <time>2014-10-08T12:27:24Z</time>
      </trkpt>
      <trkpt lat="43.23729" lon="5.65234">
        <ele>447.5</ele>
        <time>2014-10-08T12:27:28Z</time>
      </trkpt>
      <trkpt lat="43.23728" lon="5.65239">
        <ele>445.7</ele>
        <time>2014-10-08T12:27:31Z</time>
      </trkpt>
      <trkpt lat="43.23726" lon="5.65244">
        <ele>445.5</ele>
        <time>2014-10-08T12:27:34Z</time>
      </trkpt>
      <trkpt lat="43.23724" lon="5.6525">
        <ele>445.3</ele>
        <time>2014-10-08T12:27:37Z</time>
      </trkpt>
      <trkpt lat="43.23723" lon="5.65255">
        <ele>444.7</ele>
        <time>2014-10-08T12:27:40Z</time>
      </trkpt>
      <trkpt lat="43.23723" lon="5.65261">
        <ele>444.8</ele>
        <time>2014-10-08T12:27:43Z</time>
      </trkpt>
      <trkpt lat="43.23722" lon="5.65266">
        <ele>445.7</ele>
        <time>2014-10-08T12:27:46Z</time>
      </trkpt>
      <trkpt lat="43.23721" lon="5.65271">
        <ele>446.2</ele>
        <time>2014-10-08T12:27:49Z</time>
      </trkpt>
      <trkpt lat="43.2372" lon="5.65275">
        <ele>446.6</ele>
        <time>2014-10-08T12:27:51Z</time>
      </trkpt>
      <trkpt lat="43.23719" lon="5.65279">
        <ele>446.8</ele>
        <time>2014-10-08T12:27:53Z</time>
      </trkpt>
      <trkpt lat="43.23718" lon="5.65285">
        <ele>447.2</ele>
        <time>2014-10-08T12:27:56Z</time>
      </trkpt>
      <trkpt lat="43.23715" lon="5.6529">
        <ele>448</ele>
        <time>2014-10-08T12:27:59Z</time>
      </trkpt>
      <trkpt lat="43.23714" lon="5.65295">
        <ele>448.7</ele>
        <time>2014-10-08T12:28:02Z</time>
      </trkpt>
      <trkpt lat="43.23712" lon="5.653">
        <ele>450.2</ele>
        <time>2014-10-08T12:28:07Z</time>
      </trkpt>
      <trkpt lat="43.2371" lon="5.65304">
        <ele>450.2</ele>
        <time>2014-10-08T12:28:10Z</time>
      </trkpt>
      <trkpt lat="43.2371" lon="5.65308">
        <ele>449.2</ele>
        <time>2014-10-08T12:28:13Z</time>
      </trkpt>
      <trkpt lat="43.23709" lon="5.6531">
        <ele>448.8</ele>
        <time>2014-10-08T12:28:14Z</time>
      </trkpt>
      <trkpt lat="43.23706" lon="5.65319">
        <ele>448.5</ele>
        <time>2014-10-08T12:28:20Z</time>
      </trkpt>
      <trkpt lat="43.23705" lon="5.65325">
        <ele>447.1</ele>
        <time>2014-10-08T12:28:24Z</time>
      </trkpt>
      <trkpt lat="43.23705" lon="5.65329">
        <ele>446.5</ele>
        <time>2014-10-08T12:28:28Z</time>
      </trkpt>
      <trkpt lat="43.23704" lon="5.65334">
        <ele>446.3</ele>
        <time>2014-10-08T12:28:31Z</time>
      </trkpt>
      <trkpt lat="43.23703" lon="5.6534">
        <ele>445.2</ele>
        <time>2014-10-08T12:28:34Z</time>
      </trkpt>
      <trkpt lat="43.23702" lon="5.65346">
        <ele>444</ele>
        <time>2014-10-08T12:28:37Z</time>
      </trkpt>
      <trkpt lat="43.23702" lon="5.65351">
        <ele>442.7</ele>
        <time>2014-10-08T12:28:40Z</time>
      </trkpt>
      <trkpt lat="43.23701" lon="5.65356">
        <ele>442.2</ele>
        <time>2014-10-08T12:28:43Z</time>
      </trkpt>
      <trkpt lat="43.23701" lon="5.6536">
        <ele>441.8</ele>
        <time>2014-10-08T12:28:46Z</time>
      </trkpt>
      <trkpt lat="43.23699" lon="5.65366">
        <ele>440.7</ele>
        <time>2014-10-08T12:28:49Z</time>
      </trkpt>
      <trkpt lat="43.23698" lon="5.65371">
        <ele>441.1</ele>
        <time>2014-10-08T12:28:51Z</time>
      </trkpt>
      <trkpt lat="43.23697" lon="5.65376">
        <ele>441.2</ele>
        <time>2014-10-08T12:28:54Z</time>
      </trkpt>
      <trkpt lat="43.23696" lon="5.65381">
        <ele>441.2</ele>
        <time>2014-10-08T12:28:57Z</time>
      </trkpt>
      <trkpt lat="43.23696" lon="5.65387">
        <ele>440.7</ele>
        <time>2014-10-08T12:29:01Z</time>
      </trkpt>
      <trkpt lat="43.23696" lon="5.65392">
        <ele>440.7</ele>
        <time>2014-10-08T12:29:04Z</time>
      </trkpt>
      <trkpt lat="43.23695" lon="5.65397">
        <ele>440.8</ele>
        <time>2014-10-08T12:29:07Z</time>
      </trkpt>
      <trkpt lat="43.23695" lon="5.65402">
        <ele>440.5</ele>
        <time>2014-10-08T12:29:11Z</time>
      </trkpt>
      <trkpt lat="43.23694" lon="5.65408">
        <ele>440.5</ele>
        <time>2014-10-08T12:29:15Z</time>
      </trkpt>
      <trkpt lat="43.23694" lon="5.6541">
        <ele>441.1</ele>
        <time>2014-10-08T12:29:16Z</time>
      </trkpt>
      <trkpt lat="43.23695" lon="5.65419">
        <ele>440.5</ele>
        <time>2014-10-08T12:29:23Z</time>
      </trkpt>
      <trkpt lat="43.23694" lon="5.65423">
        <ele>441.3</ele>
        <time>2014-10-08T12:29:26Z</time>
      </trkpt>
      <trkpt lat="43.23693" lon="5.65428">
        <ele>440.6</ele>
        <time>2014-10-08T12:29:30Z</time>
      </trkpt>
      <trkpt lat="43.23692" lon="5.65433">
        <ele>440.5</ele>
        <time>2014-10-08T12:29:33Z</time>
      </trkpt>
      <trkpt lat="43.2369" lon="5.65437">
        <ele>440.6</ele>
        <time>2014-10-08T12:29:35Z</time>
      </trkpt>
      <trkpt lat="43.23689" lon="5.65443">
        <ele>440.1</ele>
        <time>2014-10-08T12:29:38Z</time>
      </trkpt>
      <trkpt lat="43.23688" lon="5.65447">
        <ele>439.6</ele>
        <time>2014-10-08T12:29:41Z</time>
      </trkpt>
      <trkpt lat="43.23688" lon="5.65452">
        <ele>438.7</ele>
        <time>2014-10-08T12:29:44Z</time>
      </trkpt>
      <trkpt lat="43.23687" lon="5.65456">
        <ele>439.5</ele>
        <time>2014-10-08T12:29:47Z</time>
      </trkpt>
      <trkpt lat="43.23686" lon="5.65462">
        <ele>439.2</ele>
        <time>2014-10-08T12:29:51Z</time>
      </trkpt>
      <trkpt lat="43.23686" lon="5.65468">
        <ele>438.2</ele>
        <time>2014-10-08T12:29:54Z</time>
      </trkpt>
      <trkpt lat="43.23687" lon="5.65473">
        <ele>437.3</ele>
        <time>2014-10-08T12:29:58Z</time>
      </trkpt>
      <trkpt lat="43.23687" lon="5.65478">
        <ele>437.1</ele>
        <time>2014-10-08T12:30:01Z</time>
      </trkpt>
      <trkpt lat="43.23689" lon="5.65484">
        <ele>435.5</ele>
        <time>2014-10-08T12:30:06Z</time>
      </trkpt>
      <trkpt lat="43.23688" lon="5.65489">
        <ele>434.8</ele>
        <time>2014-10-08T12:30:09Z</time>
      </trkpt>
      <trkpt lat="43.23689" lon="5.65494">
        <ele>433.5</ele>
        <time>2014-10-08T12:30:13Z</time>
      </trkpt>
      <trkpt lat="43.23691" lon="5.65499">
        <ele>431.2</ele>
        <time>2014-10-08T12:30:18Z</time>
      </trkpt>
      <trkpt lat="43.23691" lon="5.65501">
        <ele>431.2</ele>
        <time>2014-10-08T12:30:19Z</time>
      </trkpt>
      <trkpt lat="43.23694" lon="5.6551">
        <ele>430.1</ele>
        <time>2014-10-08T12:30:26Z</time>
      </trkpt>
      <trkpt lat="43.23692" lon="5.65516">
        <ele>430.5</ele>
        <time>2014-10-08T12:30:29Z</time>
      </trkpt>
      <trkpt lat="43.23691" lon="5.65521">
        <ele>431.1</ele>
        <time>2014-10-08T12:30:33Z</time>
      </trkpt>
      <trkpt lat="43.23691" lon="5.65527">
        <ele>430.2</ele>
        <time>2014-10-08T12:30:37Z</time>
      </trkpt>
      <trkpt lat="43.23691" lon="5.65531">
        <ele>429.6</ele>
        <time>2014-10-08T12:30:40Z</time>
      </trkpt>
      <trkpt lat="43.2369" lon="5.65536">
        <ele>429</ele>
        <time>2014-10-08T12:30:43Z</time>
      </trkpt>
      <trkpt lat="43.23689" lon="5.65542">
        <ele>428.5</ele>
        <time>2014-10-08T12:30:46Z</time>
      </trkpt>
      <trkpt lat="43.23688" lon="5.65547">
        <ele>427.7</ele>
        <time>2014-10-08T12:30:49Z</time>
      </trkpt>
      <trkpt lat="43.23687" lon="5.65552">
        <ele>427.8</ele>
        <time>2014-10-08T12:30:52Z</time>
      </trkpt>
      <trkpt lat="43.23685" lon="5.65556">
        <ele>428.8</ele>
        <time>2014-10-08T12:30:54Z</time>
      </trkpt>
      <trkpt lat="43.23684" lon="5.65561">
        <ele>429</ele>
        <time>2014-10-08T12:30:57Z</time>
      </trkpt>
      <trkpt lat="43.23682" lon="5.65565">
        <ele>430</ele>
        <time>2014-10-08T12:31:00Z</time>
      </trkpt>
      <trkpt lat="43.2368" lon="5.65569">
        <ele>430.8</ele>
        <time>2014-10-08T12:31:03Z</time>
      </trkpt>
      <trkpt lat="43.23679" lon="5.65574">
        <ele>430.7</ele>
        <time>2014-10-08T12:31:07Z</time>
      </trkpt>
      <trkpt lat="43.23678" lon="5.65579">
        <ele>431.1</ele>
        <time>2014-10-08T12:31:10Z</time>
      </trkpt>
      <trkpt lat="43.23678" lon="5.65585">
        <ele>431.7</ele>
        <time>2014-10-08T12:31:15Z</time>
      </trkpt>
      <trkpt lat="43.23676" lon="5.65589">
        <ele>432.2</ele>
        <time>2014-10-08T12:31:17Z</time>
      </trkpt>
      <trkpt lat="43.23674" lon="5.65594">
        <ele>432.2</ele>
        <time>2014-10-08T12:31:20Z</time>
      </trkpt>
      <trkpt lat="43.23673" lon="5.65595">
        <ele>431.8</ele>
        <time>2014-10-08T12:31:21Z</time>
      </trkpt>
      <trkpt lat="43.2367" lon="5.65604">
        <ele>431.6</ele>
        <time>2014-10-08T12:31:28Z</time>
      </trkpt>
      <trkpt lat="43.23668" lon="5.65608">
        <ele>432.1</ele>
        <time>2014-10-08T12:31:30Z</time>
      </trkpt>
      <trkpt lat="43.23666" lon="5.65613">
        <ele>431.1</ele>
        <time>2014-10-08T12:31:33Z</time>
      </trkpt>
      <trkpt lat="43.23665" lon="5.65618">
        <ele>431.3</ele>
        <time>2014-10-08T12:31:36Z</time>
      </trkpt>
      <trkpt lat="43.23663" lon="5.65622">
        <ele>431.8</ele>
        <time>2014-10-08T12:31:38Z</time>
      </trkpt>
      <trkpt lat="43.23662" lon="5.65627">
        <ele>431.6</ele>
        <time>2014-10-08T12:31:40Z</time>
      </trkpt>
      <trkpt lat="43.2366" lon="5.65632">
        <ele>430.2</ele>
        <time>2014-10-08T12:31:44Z</time>
      </trkpt>
      <trkpt lat="43.23658" lon="5.65636">
        <ele>429.5</ele>
        <time>2014-10-08T12:31:48Z</time>
      </trkpt>
      <trkpt lat="43.23657" lon="5.65642">
        <ele>429.5</ele>
        <time>2014-10-08T12:31:52Z</time>
      </trkpt>
      <trkpt lat="43.23655" lon="5.65646">
        <ele>429.5</ele>
        <time>2014-10-08T12:31:55Z</time>
      </trkpt>
      <trkpt lat="43.23653" lon="5.65651">
        <ele>430</ele>
        <time>2014-10-08T12:31:58Z</time>
      </trkpt>
      <trkpt lat="43.23652" lon="5.65656">
        <ele>429.5</ele>
        <time>2014-10-08T12:32:02Z</time>
      </trkpt>
      <trkpt lat="43.23651" lon="5.65661">
        <ele>429.6</ele>
        <time>2014-10-08T12:32:06Z</time>
      </trkpt>
      <trkpt lat="43.23649" lon="5.65665">
        <ele>429.7</ele>
        <time>2014-10-08T12:32:09Z</time>
      </trkpt>
      <trkpt lat="43.23646" lon="5.65669">
        <ele>430.2</ele>
        <time>2014-10-08T12:32:13Z</time>
      </trkpt>
      <trkpt lat="43.23644" lon="5.65674">
        <ele>429.7</ele>
        <time>2014-10-08T12:32:16Z</time>
      </trkpt>
      <trkpt lat="43.23642" lon="5.65679">
        <ele>429.7</ele>
        <time>2014-10-08T12:32:20Z</time>
      </trkpt>
      <trkpt lat="43.23641" lon="5.65684">
        <ele>429.7</ele>
        <time>2014-10-08T12:32:23Z</time>
      </trkpt>
      <trkpt lat="43.2364" lon="5.65685">
        <ele>429.5</ele>
        <time>2014-10-08T12:32:24Z</time>
      </trkpt>
      <trkpt lat="43.23637" lon="5.65694">
        <ele>427.7</ele>
        <time>2014-10-08T12:32:30Z</time>
      </trkpt>
      <trkpt lat="43.23638" lon="5.65699">
        <ele>423.7</ele>
        <time>2014-10-08T12:32:35Z</time>
      </trkpt>
      <trkpt lat="43.23635" lon="5.65704">
        <ele>423.2</ele>
        <time>2014-10-08T12:32:38Z</time>
      </trkpt>
      <trkpt lat="43.23633" lon="5.65708">
        <ele>424.7</ele>
        <time>2014-10-08T12:32:41Z</time>
      </trkpt>
      <trkpt lat="43.23631" lon="5.65713">
        <ele>426</ele>
        <time>2014-10-08T12:32:44Z</time>
      </trkpt>
      <trkpt lat="43.2363" lon="5.65717">
        <ele>426.6</ele>
        <time>2014-10-08T12:32:47Z</time>
      </trkpt>
      <trkpt lat="43.23628" lon="5.65722">
        <ele>427.3</ele>
        <time>2014-10-08T12:32:50Z</time>
      </trkpt>
      <trkpt lat="43.23626" lon="5.65726">
        <ele>427.6</ele>
        <time>2014-10-08T12:32:53Z</time>
      </trkpt>
      <trkpt lat="43.23624" lon="5.65731">
        <ele>428</ele>
        <time>2014-10-08T12:32:56Z</time>
      </trkpt>
      <trkpt lat="43.23623" lon="5.65737">
        <ele>426.6</ele>
        <time>2014-10-08T12:33:00Z</time>
      </trkpt>
      <trkpt lat="43.23623" lon="5.65742">
        <ele>425.3</ele>
        <time>2014-10-08T12:33:04Z</time>
      </trkpt>
      <trkpt lat="43.23622" lon="5.65747">
        <ele>424.8</ele>
        <time>2014-10-08T12:33:07Z</time>
      </trkpt>
      <trkpt lat="43.2362" lon="5.65752">
        <ele>424.8</ele>
        <time>2014-10-08T12:33:11Z</time>
      </trkpt>
      <trkpt lat="43.23619" lon="5.65758">
        <ele>425.1</ele>
        <time>2014-10-08T12:33:15Z</time>
      </trkpt>
      <trkpt lat="43.23618" lon="5.65763">
        <ele>424.7</ele>
        <time>2014-10-08T12:33:18Z</time>
      </trkpt>
      <trkpt lat="43.23616" lon="5.65767">
        <ele>424.3</ele>
        <time>2014-10-08T12:33:20Z</time>
      </trkpt>
      <trkpt lat="43.23615" lon="5.65772">
        <ele>425.2</ele>
        <time>2014-10-08T12:33:22Z</time>
      </trkpt>
      <trkpt lat="43.23614" lon="5.65778">
        <ele>425.2</ele>
        <time>2014-10-08T12:33:26Z</time>
      </trkpt>
      <trkpt lat="43.23614" lon="5.65779">
        <ele>425.2</ele>
        <time>2014-10-08T12:33:27Z</time>
      </trkpt>
      <trkpt lat="43.23612" lon="5.65787">
        <ele>424.8</ele>
        <time>2014-10-08T12:33:33Z</time>
      </trkpt>
      <trkpt lat="43.23611" lon="5.65792">
        <ele>425</ele>
        <time>2014-10-08T12:33:36Z</time>
      </trkpt>
      <trkpt lat="43.23611" lon="5.65798">
        <ele>424.8</ele>
        <time>2014-10-08T12:33:40Z</time>
      </trkpt>
      <trkpt lat="43.23611" lon="5.65803">
        <ele>424.7</ele>
        <time>2014-10-08T12:33:44Z</time>
      </trkpt>
      <trkpt lat="43.2361" lon="5.65809">
        <ele>425.2</ele>
        <time>2014-10-08T12:33:48Z</time>
      </trkpt>
      <trkpt lat="43.23609" lon="5.65814">
        <ele>426.6</ele>
        <time>2014-10-08T12:33:52Z</time>
      </trkpt>
      <trkpt lat="43.23609" lon="5.65819">
        <ele>425.1</ele>
        <time>2014-10-08T12:33:56Z</time>
      </trkpt>
      <trkpt lat="43.23608" lon="5.65824">
        <ele>424.5</ele>
        <time>2014-10-08T12:33:59Z</time>
      </trkpt>
      <trkpt lat="43.23607" lon="5.65829">
        <ele>423.6</ele>
        <time>2014-10-08T12:34:02Z</time>
      </trkpt>
      <trkpt lat="43.23606" lon="5.65835">
        <ele>422.7</ele>
        <time>2014-10-08T12:34:06Z</time>
      </trkpt>
      <trkpt lat="43.23606" lon="5.6584">
        <ele>421.3</ele>
        <time>2014-10-08T12:34:10Z</time>
      </trkpt>
      <trkpt lat="43.23606" lon="5.65845">
        <ele>421.3</ele>
        <time>2014-10-08T12:34:13Z</time>
      </trkpt>
      <trkpt lat="43.23606" lon="5.6585">
        <ele>422</ele>
        <time>2014-10-08T12:34:16Z</time>
      </trkpt>
      <trkpt lat="43.23606" lon="5.65854">
        <ele>421.3</ele>
        <time>2014-10-08T12:34:19Z</time>
      </trkpt>
      <trkpt lat="43.23606" lon="5.65859">
        <ele>420.2</ele>
        <time>2014-10-08T12:34:23Z</time>
      </trkpt>
      <trkpt lat="43.23605" lon="5.65865">
        <ele>420.6</ele>
        <time>2014-10-08T12:34:27Z</time>
      </trkpt>
      <trkpt lat="43.23605" lon="5.65866">
        <ele>420.6</ele>
        <time>2014-10-08T12:34:28Z</time>
      </trkpt>
      <trkpt lat="43.23605" lon="5.65875">
        <ele>421.2</ele>
        <time>2014-10-08T12:34:34Z</time>
      </trkpt>
      <trkpt lat="43.23606" lon="5.65881">
        <ele>419.6</ele>
        <time>2014-10-08T12:34:39Z</time>
      </trkpt>
      <trkpt lat="43.23606" lon="5.65886">
        <ele>419.2</ele>
        <time>2014-10-08T12:34:43Z</time>
      </trkpt>
      <trkpt lat="43.23606" lon="5.65892">
        <ele>419</ele>
        <time>2014-10-08T12:34:47Z</time>
      </trkpt>
      <trkpt lat="43.23606" lon="5.65896">
        <ele>419.2</ele>
        <time>2014-10-08T12:34:50Z</time>
      </trkpt>
      <trkpt lat="43.23605" lon="5.65901">
        <ele>420.3</ele>
        <time>2014-10-08T12:34:52Z</time>
      </trkpt>
      <trkpt lat="43.23603" lon="5.65905">
        <ele>421</ele>
        <time>2014-10-08T12:34:54Z</time>
      </trkpt>
      <trkpt lat="43.23602" lon="5.65911">
        <ele>421</ele>
        <time>2014-10-08T12:34:58Z</time>
      </trkpt>
      <trkpt lat="43.23603" lon="5.65916">
        <ele>420.2</ele>
        <time>2014-10-08T12:35:03Z</time>
      </trkpt>
      <trkpt lat="43.23602" lon="5.6592">
        <ele>418.7</ele>
        <time>2014-10-08T12:35:06Z</time>
      </trkpt>
      <trkpt lat="43.23601" lon="5.65926">
        <ele>417.2</ele>
        <time>2014-10-08T12:35:09Z</time>
      </trkpt>
      <trkpt lat="43.23602" lon="5.65931">
        <ele>415.6</ele>
        <time>2014-10-08T12:35:14Z</time>
      </trkpt>
      <trkpt lat="43.23601" lon="5.65936">
        <ele>415.7</ele>
        <time>2014-10-08T12:35:18Z</time>
      </trkpt>
      <trkpt lat="43.23599" lon="5.65941">
        <ele>417.7</ele>
        <time>2014-10-08T12:35:22Z</time>
      </trkpt>
      <trkpt lat="43.23598" lon="5.65946">
        <ele>418.5</ele>
        <time>2014-10-08T12:35:25Z</time>
      </trkpt>
      <trkpt lat="43.23599" lon="5.65952">
        <ele>417.7</ele>
        <time>2014-10-08T12:35:29Z</time>
      </trkpt>
      <trkpt lat="43.23598" lon="5.65954">
        <ele>417.7</ele>
        <time>2014-10-08T12:35:30Z</time>
      </trkpt>
      <trkpt lat="43.23596" lon="5.65962">
        <ele>418.5</ele>
        <time>2014-10-08T12:35:34Z</time>
      </trkpt>
      <trkpt lat="43.23594" lon="5.65967">
        <ele>419.7</ele>
        <time>2014-10-08T12:35:37Z</time>
      </trkpt>
      <trkpt lat="43.23593" lon="5.65971">
        <ele>421.6</ele>
        <time>2014-10-08T12:35:40Z</time>
      </trkpt>
      <trkpt lat="43.23593" lon="5.65977">
        <ele>420.8</ele>
        <time>2014-10-08T12:35:43Z</time>
      </trkpt>
      <trkpt lat="43.23591" lon="5.65981">
        <ele>423.3</ele>
        <time>2014-10-08T12:35:46Z</time>
      </trkpt>
      <trkpt lat="43.23589" lon="5.65986">
        <ele>424.1</ele>
        <time>2014-10-08T12:35:49Z</time>
      </trkpt>
      <trkpt lat="43.2359" lon="5.65991">
        <ele>422.6</ele>
        <time>2014-10-08T12:35:53Z</time>
      </trkpt>
      <trkpt lat="43.2359" lon="5.65996">
        <ele>423.2</ele>
        <time>2014-10-08T12:35:57Z</time>
      </trkpt>
      <trkpt lat="43.23589" lon="5.66">
        <ele>423.5</ele>
        <time>2014-10-08T12:35:59Z</time>
      </trkpt>
      <trkpt lat="43.23588" lon="5.66004">
        <ele>423.3</ele>
        <time>2014-10-08T12:36:01Z</time>
      </trkpt>
      <trkpt lat="43.23587" lon="5.66007">
        <ele>423.7</ele>
        <time>2014-10-08T12:36:02Z</time>
      </trkpt>
      <trkpt lat="43.23586" lon="5.66012">
        <ele>424.8</ele>
        <time>2014-10-08T12:36:04Z</time>
      </trkpt>
      <trkpt lat="43.23586" lon="5.66017">
        <ele>425.2</ele>
        <time>2014-10-08T12:36:08Z</time>
      </trkpt>
      <trkpt lat="43.23586" lon="5.66023">
        <ele>425</ele>
        <time>2014-10-08T12:36:12Z</time>
      </trkpt>
      <trkpt lat="43.23587" lon="5.66028">
        <ele>423.3</ele>
        <time>2014-10-08T12:36:16Z</time>
      </trkpt>
      <trkpt lat="43.23587" lon="5.66032">
        <ele>421.7</ele>
        <time>2014-10-08T12:36:19Z</time>
      </trkpt>
      <trkpt lat="43.23587" lon="5.66038">
        <ele>420.7</ele>
        <time>2014-10-08T12:36:23Z</time>
      </trkpt>
      <trkpt lat="43.23587" lon="5.66043">
        <ele>420.2</ele>
        <time>2014-10-08T12:36:27Z</time>
      </trkpt>
      <trkpt lat="43.23588" lon="5.66048">
        <ele>419.7</ele>
        <time>2014-10-08T12:36:31Z</time>
      </trkpt>
      <trkpt lat="43.23587" lon="5.6605">
        <ele>420.1</ele>
        <time>2014-10-08T12:36:32Z</time>
      </trkpt>
      <trkpt lat="43.23585" lon="5.66059">
        <ele>419.7</ele>
        <time>2014-10-08T12:36:37Z</time>
      </trkpt>
      <trkpt lat="43.23585" lon="5.66064">
        <ele>418.8</ele>
        <time>2014-10-08T12:36:40Z</time>
      </trkpt>
      <trkpt lat="43.23587" lon="5.66068">
        <ele>416.8</ele>
        <time>2014-10-08T12:36:43Z</time>
      </trkpt>
      <trkpt lat="43.23586" lon="5.66073">
        <ele>416.7</ele>
        <time>2014-10-08T12:36:46Z</time>
      </trkpt>
      <trkpt lat="43.23585" lon="5.66077">
        <ele>417.6</ele>
        <time>2014-10-08T12:36:48Z</time>
      </trkpt>
      <trkpt lat="43.23584" lon="5.66083">
        <ele>418.8</ele>
        <time>2014-10-08T12:36:51Z</time>
      </trkpt>
      <trkpt lat="43.23584" lon="5.66089">
        <ele>417.7</ele>
        <time>2014-10-08T12:36:54Z</time>
      </trkpt>
      <trkpt lat="43.23583" lon="5.66093">
        <ele>416.1</ele>
        <time>2014-10-08T12:36:57Z</time>
      </trkpt>
      <trkpt lat="43.23584" lon="5.66099">
        <ele>414.7</ele>
        <time>2014-10-08T12:37:01Z</time>
      </trkpt>
      <trkpt lat="43.23584" lon="5.66104">
        <ele>414.7</ele>
        <time>2014-10-08T12:37:04Z</time>
      </trkpt>
      <trkpt lat="43.23583" lon="5.66109">
        <ele>414.5</ele>
        <time>2014-10-08T12:37:08Z</time>
      </trkpt>
      <trkpt lat="43.23583" lon="5.66115">
        <ele>414</ele>
        <time>2014-10-08T12:37:12Z</time>
      </trkpt>
      <trkpt lat="43.23583" lon="5.66121">
        <ele>413.3</ele>
        <time>2014-10-08T12:37:17Z</time>
      </trkpt>
      <trkpt lat="43.23582" lon="5.66126">
        <ele>413.2</ele>
        <time>2014-10-08T12:37:21Z</time>
      </trkpt>
      <trkpt lat="43.2358" lon="5.66131">
        <ele>414.2</ele>
        <time>2014-10-08T12:37:23Z</time>
      </trkpt>
      <trkpt lat="43.23579" lon="5.66135">
        <ele>415.2</ele>
        <time>2014-10-08T12:37:26Z</time>
      </trkpt>
      <trkpt lat="43.23579" lon="5.66142">
        <ele>416.8</ele>
        <time>2014-10-08T12:37:30Z</time>
      </trkpt>
      <trkpt lat="43.23579" lon="5.66145">
        <ele>416.7</ele>
        <time>2014-10-08T12:37:32Z</time>
      </trkpt>
      <trkpt lat="43.23577" lon="5.6615">
        <ele>417.1</ele>
        <time>2014-10-08T12:37:34Z</time>
      </trkpt>
      <trkpt lat="43.23577" lon="5.66151">
        <ele>416.7</ele>
        <time>2014-10-08T12:37:35Z</time>
      </trkpt>
      <trkpt lat="43.23577" lon="5.6616">
        <ele>414.7</ele>
        <time>2014-10-08T12:37:42Z</time>
      </trkpt>
      <trkpt lat="43.23579" lon="5.66165">
        <ele>412.5</ele>
        <time>2014-10-08T12:37:46Z</time>
      </trkpt>
      <trkpt lat="43.2358" lon="5.66171">
        <ele>412.1</ele>
        <time>2014-10-08T12:37:50Z</time>
      </trkpt>
      <trkpt lat="43.23581" lon="5.66175">
        <ele>410.7</ele>
        <time>2014-10-08T12:37:53Z</time>
      </trkpt>
      <trkpt lat="43.23582" lon="5.66181">
        <ele>409</ele>
        <time>2014-10-08T12:37:57Z</time>
      </trkpt>
      <trkpt lat="43.23583" lon="5.66186">
        <ele>408.3</ele>
        <time>2014-10-08T12:38:01Z</time>
      </trkpt>
      <trkpt lat="43.23584" lon="5.66192">
        <ele>410.2</ele>
        <time>2014-10-08T12:38:08Z</time>
      </trkpt>
      <trkpt lat="43.23585" lon="5.66196">
        <ele>410.6</ele>
        <time>2014-10-08T12:38:13Z</time>
      </trkpt>
      <trkpt lat="43.23585" lon="5.66202">
        <ele>409.6</ele>
        <time>2014-10-08T12:38:17Z</time>
      </trkpt>
      <trkpt lat="43.23584" lon="5.66207">
        <ele>409.7</ele>
        <time>2014-10-08T12:38:20Z</time>
      </trkpt>
      <trkpt lat="43.23583" lon="5.66212">
        <ele>410.7</ele>
        <time>2014-10-08T12:38:22Z</time>
      </trkpt>
      <trkpt lat="43.23583" lon="5.66217">
        <ele>411.5</ele>
        <time>2014-10-08T12:38:25Z</time>
      </trkpt>
      <trkpt lat="43.23582" lon="5.66222">
        <ele>412.2</ele>
        <time>2014-10-08T12:38:28Z</time>
      </trkpt>
      <trkpt lat="43.23581" lon="5.66228">
        <ele>413.1</ele>
        <time>2014-10-08T12:38:34Z</time>
      </trkpt>
      <trkpt lat="43.23579" lon="5.66233">
        <ele>411.2</ele>
        <time>2014-10-08T12:38:41Z</time>
      </trkpt>
      <trkpt lat="43.23579" lon="5.66234">
        <ele>411.3</ele>
        <time>2014-10-08T12:38:42Z</time>
      </trkpt>
      <trkpt lat="43.23576" lon="5.66243">
        <ele>411.7</ele>
        <time>2014-10-08T12:38:48Z</time>
      </trkpt>
      <trkpt lat="43.23575" lon="5.66248">
        <ele>412.6</ele>
        <time>2014-10-08T12:38:51Z</time>
      </trkpt>
      <trkpt lat="43.23574" lon="5.66251">
        <ele>413.5</ele>
        <time>2014-10-08T12:38:52Z</time>
      </trkpt>
      <trkpt lat="43.23572" lon="5.66256">
        <ele>415.2</ele>
        <time>2014-10-08T12:38:54Z</time>
      </trkpt>
      <trkpt lat="43.2357" lon="5.6626">
        <ele>415.8</ele>
        <time>2014-10-08T12:38:58Z</time>
      </trkpt>
      <trkpt lat="43.23568" lon="5.66266">
        <ele>416.3</ele>
        <time>2014-10-08T12:39:03Z</time>
      </trkpt>
      <trkpt lat="43.23567" lon="5.66271">
        <ele>417.6</ele>
        <time>2014-10-08T12:39:08Z</time>
      </trkpt>
      <trkpt lat="43.23566" lon="5.66277">
        <ele>418.7</ele>
        <time>2014-10-08T12:39:13Z</time>
      </trkpt>
      <trkpt lat="43.23565" lon="5.66282">
        <ele>418.7</ele>
        <time>2014-10-08T12:39:18Z</time>
      </trkpt>
      <trkpt lat="43.23564" lon="5.66287">
        <ele>419.2</ele>
        <time>2014-10-08T12:39:21Z</time>
      </trkpt>
      <trkpt lat="43.23563" lon="5.66292">
        <ele>418.1</ele>
        <time>2014-10-08T12:39:24Z</time>
      </trkpt>
      <trkpt lat="43.23562" lon="5.66297">
        <ele>417.2</ele>
        <time>2014-10-08T12:39:27Z</time>
      </trkpt>
      <trkpt lat="43.23562" lon="5.66303">
        <ele>416.5</ele>
        <time>2014-10-08T12:39:31Z</time>
      </trkpt>
      <trkpt lat="43.23561" lon="5.66308">
        <ele>415.8</ele>
        <time>2014-10-08T12:39:34Z</time>
      </trkpt>
      <trkpt lat="43.2356" lon="5.66313">
        <ele>415.6</ele>
        <time>2014-10-08T12:39:37Z</time>
      </trkpt>
      <trkpt lat="43.23559" lon="5.66319">
        <ele>415.7</ele>
        <time>2014-10-08T12:39:40Z</time>
      </trkpt>
      <trkpt lat="43.23559" lon="5.66324">
        <ele>415.3</ele>
        <time>2014-10-08T12:39:44Z</time>
      </trkpt>
      <trkpt lat="43.23559" lon="5.66326">
        <ele>414.3</ele>
        <time>2014-10-08T12:39:45Z</time>
      </trkpt>
      <trkpt lat="43.23561" lon="5.66334">
        <ele>411.2</ele>
        <time>2014-10-08T12:39:51Z</time>
      </trkpt>
      <trkpt lat="43.23561" lon="5.66339">
        <ele>410.2</ele>
        <time>2014-10-08T12:39:54Z</time>
      </trkpt>
      <trkpt lat="43.2356" lon="5.66344">
        <ele>410.7</ele>
        <time>2014-10-08T12:39:56Z</time>
      </trkpt>
      <trkpt lat="43.23559" lon="5.66348">
        <ele>411</ele>
        <time>2014-10-08T12:39:59Z</time>
      </trkpt>
      <trkpt lat="43.23559" lon="5.66353">
        <ele>412</ele>
        <time>2014-10-08T12:40:02Z</time>
      </trkpt>
      <trkpt lat="43.23559" lon="5.66359">
        <ele>410.7</ele>
        <time>2014-10-08T12:40:14Z</time>
      </trkpt>
      <trkpt lat="43.23557" lon="5.66363">
        <ele>410.7</ele>
        <time>2014-10-08T12:40:17Z</time>
      </trkpt>
      <trkpt lat="43.23556" lon="5.66368">
        <ele>411.2</ele>
        <time>2014-10-08T12:40:20Z</time>
      </trkpt>
      <trkpt lat="43.23555" lon="5.66373">
        <ele>412.2</ele>
        <time>2014-10-08T12:40:23Z</time>
      </trkpt>
      <trkpt lat="43.23554" lon="5.66378">
        <ele>412.6</ele>
        <time>2014-10-08T12:40:27Z</time>
      </trkpt>
      <trkpt lat="43.23553" lon="5.66384">
        <ele>411.6</ele>
        <time>2014-10-08T12:40:30Z</time>
      </trkpt>
      <trkpt lat="43.23552" lon="5.66388">
        <ele>413.2</ele>
        <time>2014-10-08T12:40:32Z</time>
      </trkpt>
      <trkpt lat="43.23551" lon="5.66394">
        <ele>412.2</ele>
        <time>2014-10-08T12:40:36Z</time>
      </trkpt>
      <trkpt lat="43.2355" lon="5.66399">
        <ele>413</ele>
        <time>2014-10-08T12:40:39Z</time>
      </trkpt>
      <trkpt lat="43.23549" lon="5.66404">
        <ele>413.1</ele>
        <time>2014-10-08T12:40:42Z</time>
      </trkpt>
      <trkpt lat="43.23548" lon="5.6641">
        <ele>413.5</ele>
        <time>2014-10-08T12:40:46Z</time>
      </trkpt>
      <trkpt lat="43.23547" lon="5.66412">
        <ele>413.7</ele>
        <time>2014-10-08T12:40:47Z</time>
      </trkpt>
      <trkpt lat="43.23546" lon="5.6642">
        <ele>413.2</ele>
        <time>2014-10-08T12:40:52Z</time>
      </trkpt>
      <trkpt lat="43.23543" lon="5.66424">
        <ele>415.2</ele>
        <time>2014-10-08T12:41:00Z</time>
      </trkpt>
      <trkpt lat="43.23545" lon="5.6643">
        <ele>411.5</ele>
        <time>2014-10-08T12:41:07Z</time>
      </trkpt>
      <trkpt lat="43.23547" lon="5.66435">
        <ele>407.2</ele>
        <time>2014-10-08T12:41:11Z</time>
      </trkpt>
      <trkpt lat="43.23548" lon="5.66441">
        <ele>404</ele>
        <time>2014-10-08T12:41:15Z</time>
      </trkpt>
      <trkpt lat="43.23549" lon="5.66445">
        <ele>401.1</ele>
        <time>2014-10-08T12:41:19Z</time>
      </trkpt>
      <trkpt lat="43.2355" lon="5.6645">
        <ele>400.2</ele>
        <time>2014-10-08T12:41:22Z</time>
      </trkpt>
      <trkpt lat="43.2355" lon="5.66456">
        <ele>401.6</ele>
        <time>2014-10-08T12:41:25Z</time>
      </trkpt>
      <trkpt lat="43.23552" lon="5.66461">
        <ele>402.2</ele>
        <time>2014-10-08T12:41:28Z</time>
      </trkpt>
      <trkpt lat="43.23552" lon="5.66466">
        <ele>403.1</ele>
        <time>2014-10-08T12:41:31Z</time>
      </trkpt>
      <trkpt lat="43.23553" lon="5.66472">
        <ele>401.7</ele>
        <time>2014-10-08T12:41:35Z</time>
      </trkpt>
      <trkpt lat="43.23553" lon="5.66477">
        <ele>401.8</ele>
        <time>2014-10-08T12:41:38Z</time>
      </trkpt>
      <trkpt lat="43.23552" lon="5.66482">
        <ele>402.6</ele>
        <time>2014-10-08T12:41:40Z</time>
      </trkpt>
      <trkpt lat="43.23552" lon="5.66488">
        <ele>403.7</ele>
        <time>2014-10-08T12:41:43Z</time>
      </trkpt>
      <trkpt lat="43.2355" lon="5.66494">
        <ele>405</ele>
        <time>2014-10-08T12:41:46Z</time>
      </trkpt>
      <trkpt lat="43.23551" lon="5.66499">
        <ele>405.8</ele>
        <time>2014-10-08T12:41:50Z</time>
      </trkpt>
      <trkpt lat="43.23551" lon="5.665">
        <ele>406</ele>
        <time>2014-10-08T12:41:51Z</time>
      </trkpt>
      <trkpt lat="43.23552" lon="5.66509">
        <ele>402.2</ele>
        <time>2014-10-08T12:41:57Z</time>
      </trkpt>
      <trkpt lat="43.23553" lon="5.66515">
        <ele>399</ele>
        <time>2014-10-08T12:42:02Z</time>
      </trkpt>
      <trkpt lat="43.23553" lon="5.66519">
        <ele>397.7</ele>
        <time>2014-10-08T12:42:06Z</time>
      </trkpt>
      <trkpt lat="43.23552" lon="5.66524">
        <ele>398.8</ele>
        <time>2014-10-08T12:42:08Z</time>
      </trkpt>
      <trkpt lat="43.23551" lon="5.66529">
        <ele>400.7</ele>
        <time>2014-10-08T12:42:11Z</time>
      </trkpt>
      <trkpt lat="43.23551" lon="5.66534">
        <ele>402.7</ele>
        <time>2014-10-08T12:42:14Z</time>
      </trkpt>
      <trkpt lat="43.23551" lon="5.66539">
        <ele>404.2</ele>
        <time>2014-10-08T12:42:17Z</time>
      </trkpt>
      <trkpt lat="43.23551" lon="5.66544">
        <ele>404.8</ele>
        <time>2014-10-08T12:42:19Z</time>
      </trkpt>
      <trkpt lat="43.23549" lon="5.66549">
        <ele>407.7</ele>
        <time>2014-10-08T12:42:22Z</time>
      </trkpt>
      <trkpt lat="43.23548" lon="5.66554">
        <ele>409.1</ele>
        <time>2014-10-08T12:42:25Z</time>
      </trkpt>
      <trkpt lat="43.23547" lon="5.66558">
        <ele>408.6</ele>
        <time>2014-10-08T12:42:27Z</time>
      </trkpt>
      <trkpt lat="43.23547" lon="5.66563">
        <ele>408</ele>
        <time>2014-10-08T12:42:30Z</time>
      </trkpt>
      <trkpt lat="43.23545" lon="5.66568">
        <ele>407.6</ele>
        <time>2014-10-08T12:42:33Z</time>
      </trkpt>
      <trkpt lat="43.23544" lon="5.66574">
        <ele>407.7</ele>
        <time>2014-10-08T12:42:36Z</time>
      </trkpt>
      <trkpt lat="43.23543" lon="5.66579">
        <ele>407.8</ele>
        <time>2014-10-08T12:42:39Z</time>
      </trkpt>
      <trkpt lat="43.23543" lon="5.66584">
        <ele>407.1</ele>
        <time>2014-10-08T12:42:42Z</time>
      </trkpt>
      <trkpt lat="43.23543" lon="5.6659">
        <ele>405.6</ele>
        <time>2014-10-08T12:42:46Z</time>
      </trkpt>
      <trkpt lat="43.23543" lon="5.66595">
        <ele>404.8</ele>
        <time>2014-10-08T12:42:50Z</time>
      </trkpt>
      <trkpt lat="43.23542" lon="5.666">
        <ele>405.7</ele>
        <time>2014-10-08T12:42:53Z</time>
      </trkpt>
      <trkpt lat="43.23541" lon="5.66602">
        <ele>406.1</ele>
        <time>2014-10-08T12:42:54Z</time>
      </trkpt>
      <trkpt lat="43.23539" lon="5.66609">
        <ele>407.8</ele>
        <time>2014-10-08T12:42:59Z</time>
      </trkpt>
      <trkpt lat="43.23538" lon="5.66615">
        <ele>408.8</ele>
        <time>2014-10-08T12:43:02Z</time>
      </trkpt>
      <trkpt lat="43.23537" lon="5.6662">
        <ele>409.2</ele>
        <time>2014-10-08T12:43:05Z</time>
      </trkpt>
      <trkpt lat="43.23536" lon="5.66625">
        <ele>410.2</ele>
        <time>2014-10-08T12:43:08Z</time>
      </trkpt>
      <trkpt lat="43.23535" lon="5.6663">
        <ele>410.2</ele>
        <time>2014-10-08T12:43:11Z</time>
      </trkpt>
      <trkpt lat="43.23535" lon="5.66635">
        <ele>410.8</ele>
        <time>2014-10-08T12:43:14Z</time>
      </trkpt>
      <trkpt lat="43.23534" lon="5.6664">
        <ele>410.2</ele>
        <time>2014-10-08T12:43:17Z</time>
      </trkpt>
      <trkpt lat="43.23533" lon="5.66645">
        <ele>409</ele>
        <time>2014-10-08T12:43:19Z</time>
      </trkpt>
      <trkpt lat="43.23533" lon="5.66651">
        <ele>407.6</ele>
        <time>2014-10-08T12:43:22Z</time>
      </trkpt>
      <trkpt lat="43.23534" lon="5.66656">
        <ele>407</ele>
        <time>2014-10-08T12:43:27Z</time>
      </trkpt>
      <trkpt lat="43.23535" lon="5.66661">
        <ele>405.7</ele>
        <time>2014-10-08T12:43:31Z</time>
      </trkpt>
      <trkpt lat="43.23534" lon="5.66665">
        <ele>406.3</ele>
        <time>2014-10-08T12:43:33Z</time>
      </trkpt>
      <trkpt lat="43.23534" lon="5.66669">
        <ele>407.6</ele>
        <time>2014-10-08T12:43:35Z</time>
      </trkpt>
      <trkpt lat="43.23533" lon="5.66675">
        <ele>407.6</ele>
        <time>2014-10-08T12:43:38Z</time>
      </trkpt>
      <trkpt lat="43.23534" lon="5.66679">
        <ele>405.6</ele>
        <time>2014-10-08T12:43:41Z</time>
      </trkpt>
      <trkpt lat="43.23535" lon="5.66684">
        <ele>405.7</ele>
        <time>2014-10-08T12:43:43Z</time>
      </trkpt>
      <trkpt lat="43.23536" lon="5.66689">
        <ele>405</ele>
        <time>2014-10-08T12:43:46Z</time>
      </trkpt>
      <trkpt lat="43.23537" lon="5.66694">
        <ele>404.2</ele>
        <time>2014-10-08T12:43:51Z</time>
      </trkpt>
      <trkpt lat="43.23537" lon="5.667">
        <ele>403.7</ele>
        <time>2014-10-08T12:43:56Z</time>
      </trkpt>
      <trkpt lat="43.23537" lon="5.66701">
        <ele>402.7</ele>
        <time>2014-10-08T12:43:57Z</time>
      </trkpt>
      <trkpt lat="43.23538" lon="5.66711">
        <ele>400.7</ele>
        <time>2014-10-08T12:44:04Z</time>
      </trkpt>
      <trkpt lat="43.23538" lon="5.66717">
        <ele>399.6</ele>
        <time>2014-10-08T12:44:07Z</time>
      </trkpt>
      <trkpt lat="43.23537" lon="5.66722">
        <ele>399.3</ele>
        <time>2014-10-08T12:44:10Z</time>
      </trkpt>
      <trkpt lat="43.23536" lon="5.66727">
        <ele>399.6</ele>
        <time>2014-10-08T12:44:13Z</time>
      </trkpt>
      <trkpt lat="43.23534" lon="5.66733">
        <ele>399.7</ele>
        <time>2014-10-08T12:44:16Z</time>
      </trkpt>
      <trkpt lat="43.23533" lon="5.66737">
        <ele>401.2</ele>
        <time>2014-10-08T12:44:18Z</time>
      </trkpt>
      <trkpt lat="43.23531" lon="5.66742">
        <ele>401</ele>
        <time>2014-10-08T12:44:22Z</time>
      </trkpt>
      <trkpt lat="43.23529" lon="5.66747">
        <ele>401.1</ele>
        <time>2014-10-08T12:44:26Z</time>
      </trkpt>
      <trkpt lat="43.23527" lon="5.66752">
        <ele>402.2</ele>
        <time>2014-10-08T12:44:28Z</time>
      </trkpt>
      <trkpt lat="43.23524" lon="5.66756">
        <ele>402.5</ele>
        <time>2014-10-08T12:44:31Z</time>
      </trkpt>
      <trkpt lat="43.23523" lon="5.66761">
        <ele>403.3</ele>
        <time>2014-10-08T12:44:34Z</time>
      </trkpt>
      <trkpt lat="43.23521" lon="5.66765">
        <ele>403.7</ele>
        <time>2014-10-08T12:44:36Z</time>
      </trkpt>
      <trkpt lat="43.2352" lon="5.6677">
        <ele>405.2</ele>
        <time>2014-10-08T12:44:38Z</time>
      </trkpt>
      <trkpt lat="43.23519" lon="5.66775">
        <ele>405.8</ele>
        <time>2014-10-08T12:44:41Z</time>
      </trkpt>
      <trkpt lat="43.23518" lon="5.66781">
        <ele>404</ele>
        <time>2014-10-08T12:44:46Z</time>
      </trkpt>
      <trkpt lat="43.23518" lon="5.66787">
        <ele>402</ele>
        <time>2014-10-08T12:44:50Z</time>
      </trkpt>
      <trkpt lat="43.23517" lon="5.66792">
        <ele>401.8</ele>
        <time>2014-10-08T12:44:54Z</time>
      </trkpt>
      <trkpt lat="43.23515" lon="5.66796">
        <ele>404.2</ele>
        <time>2014-10-08T12:44:55Z</time>
      </trkpt>
      <trkpt lat="43.23515" lon="5.668">
        <ele>405.2</ele>
        <time>2014-10-08T12:44:57Z</time>
      </trkpt>
      <trkpt lat="43.23514" lon="5.66802">
        <ele>406.1</ele>
        <time>2014-10-08T12:44:58Z</time>
      </trkpt>
      <trkpt lat="43.23513" lon="5.66809">
        <ele>407.8</ele>
        <time>2014-10-08T12:45:00Z</time>
      </trkpt>
      <trkpt lat="43.23511" lon="5.66814">
        <ele>409.7</ele>
        <time>2014-10-08T12:45:02Z</time>
      </trkpt>
      <trkpt lat="43.23509" lon="5.66819">
        <ele>408.2</ele>
        <time>2014-10-08T12:45:06Z</time>
      </trkpt>
      <trkpt lat="43.23508" lon="5.66823">
        <ele>407.5</ele>
        <time>2014-10-08T12:45:09Z</time>
      </trkpt>
      <trkpt lat="43.23507" lon="5.66828">
        <ele>408</ele>
        <time>2014-10-08T12:45:11Z</time>
      </trkpt>
      <trkpt lat="43.23507" lon="5.66833">
        <ele>408.2</ele>
        <time>2014-10-08T12:45:14Z</time>
      </trkpt>
      <trkpt lat="43.23505" lon="5.66839">
        <ele>407.1</ele>
        <time>2014-10-08T12:45:18Z</time>
      </trkpt>
      <trkpt lat="43.23504" lon="5.66844">
        <ele>406</ele>
        <time>2014-10-08T12:45:22Z</time>
      </trkpt>
      <trkpt lat="43.23502" lon="5.66848">
        <ele>406.3</ele>
        <time>2014-10-08T12:45:24Z</time>
      </trkpt>
      <trkpt lat="43.23501" lon="5.66852">
        <ele>405.8</ele>
        <time>2014-10-08T12:45:27Z</time>
      </trkpt>
      <trkpt lat="43.235" lon="5.66857">
        <ele>405.3</ele>
        <time>2014-10-08T12:45:30Z</time>
      </trkpt>
      <trkpt lat="43.235" lon="5.66863">
        <ele>405.2</ele>
        <time>2014-10-08T12:45:34Z</time>
      </trkpt>
      <trkpt lat="43.23498" lon="5.66868">
        <ele>405.6</ele>
        <time>2014-10-08T12:45:37Z</time>
      </trkpt>
      <trkpt lat="43.23497" lon="5.66874">
        <ele>406.5</ele>
        <time>2014-10-08T12:45:41Z</time>
      </trkpt>
      <trkpt lat="43.23496" lon="5.66879">
        <ele>407.7</ele>
        <time>2014-10-08T12:45:45Z</time>
      </trkpt>
      <trkpt lat="43.23496" lon="5.66885">
        <ele>407.1</ele>
        <time>2014-10-08T12:45:49Z</time>
      </trkpt>
      <trkpt lat="43.23496" lon="5.66889">
        <ele>407.6</ele>
        <time>2014-10-08T12:45:52Z</time>
      </trkpt>
      <trkpt lat="43.23495" lon="5.66895">
        <ele>408.1</ele>
        <time>2014-10-08T12:45:55Z</time>
      </trkpt>
      <trkpt lat="43.23495" lon="5.66901">
        <ele>407.7</ele>
        <time>2014-10-08T12:45:58Z</time>
      </trkpt>
      <trkpt lat="43.23495" lon="5.66902">
        <ele>407.7</ele>
        <time>2014-10-08T12:45:59Z</time>
      </trkpt>
    </trkseg>
  </trk>
</gpx>